<?xml version="1.0" encoding="UTF-8" standalone="no" ?>
<gpx xmlns="http://www.topografix.com/GPX/1/1" xmlns:xsi="http://www.w3.org/2001/XMLSchema-instance" xsi:schemaLocation="http://www.topografix.com/GPX/1/1 http://www.topografix.com/GPX/1/1/gpx.xsd" version="1.1" creator="VisuGPX - https://www.visugpx.com">
  <metadata>
    <name>04 - Promenade vers les bergeries en pierres sèches</name>
    <desc><![CDATA[Une promenade facile au départ de Châteauneuf Val Saint Donat pour voir quelques bergeries en pierres sèches.

Quelques photos sur mon site: [url]http://sites.google.com/site/yvesprovence/04---alpes-de-haute-provence/chateauneuf-val-saint-donat[/url]]]></desc>
  </metadata>
  <wpt lat="44.093" lon="5.94893">
    <ele>326</ele>
    <name><![CDATA[Départ]]></name>
    <desc><![CDATA[25-JAN-12 13:06:15]]></desc>
    <cmt><![CDATA[25-JAN-12 13:06:15]]></cmt>
  </wpt>
  <trk>
    <name><![CDATA[Le chemin des Bories]]></name>
    <trkseg>
      <trkpt lat="44.093" lon="5.94893">
        <ele>326.0241699</ele>
        <time>2012-01-25T12:06:29Z</time>
      </trkpt>
      <trkpt lat="44.093" lon="5.94893">
        <ele>333.2341309</ele>
        <time>2012-01-25T12:06:30Z</time>
      </trkpt>
      <trkpt lat="44.09301" lon="5.94893">
        <ele>340.9246826</ele>
        <time>2012-01-25T12:06:31Z</time>
      </trkpt>
      <trkpt lat="44.09301" lon="5.94893">
        <ele>348.1346436</ele>
        <time>2012-01-25T12:06:32Z</time>
      </trkpt>
      <trkpt lat="44.09301" lon="5.94893">
        <ele>354.3831787</ele>
        <time>2012-01-25T12:06:33Z</time>
      </trkpt>
      <trkpt lat="44.09301" lon="5.94892">
        <ele>361.1124268</ele>
        <time>2012-01-25T12:06:34Z</time>
      </trkpt>
      <trkpt lat="44.09301" lon="5.94892">
        <ele>367.3609619</ele>
        <time>2012-01-25T12:06:35Z</time>
      </trkpt>
      <trkpt lat="44.09302" lon="5.94892">
        <ele>373.6094971</ele>
        <time>2012-01-25T12:06:36Z</time>
      </trkpt>
      <trkpt lat="44.09302" lon="5.94892">
        <ele>379.8580322</ele>
        <time>2012-01-25T12:06:37Z</time>
      </trkpt>
      <trkpt lat="44.09302" lon="5.94891">
        <ele>385.6259766</ele>
        <time>2012-01-25T12:06:38Z</time>
      </trkpt>
      <trkpt lat="44.09302" lon="5.94893">
        <ele>390.913208</ele>
        <time>2012-01-25T12:06:39Z</time>
      </trkpt>
      <trkpt lat="44.09302" lon="5.94894">
        <ele>396.6811523</ele>
        <time>2012-01-25T12:06:40Z</time>
      </trkpt>
      <trkpt lat="44.09302" lon="5.94895">
        <ele>401.9685059</ele>
        <time>2012-01-25T12:06:41Z</time>
      </trkpt>
      <trkpt lat="44.09303" lon="5.94897">
        <ele>406.7749023</ele>
        <time>2012-01-25T12:06:42Z</time>
      </trkpt>
      <trkpt lat="44.09303" lon="5.94898">
        <ele>412.0622559</ele>
        <time>2012-01-25T12:06:43Z</time>
      </trkpt>
      <trkpt lat="44.09303" lon="5.949">
        <ele>416.8688965</ele>
        <time>2012-01-25T12:06:44Z</time>
      </trkpt>
      <trkpt lat="44.09304" lon="5.94901">
        <ele>421.1948242</ele>
        <time>2012-01-25T12:06:45Z</time>
      </trkpt>
      <trkpt lat="44.09304" lon="5.94902">
        <ele>425.520752</ele>
        <time>2012-01-25T12:06:46Z</time>
      </trkpt>
      <trkpt lat="44.09304" lon="5.94902">
        <ele>429.8465576</ele>
        <time>2012-01-25T12:06:47Z</time>
      </trkpt>
      <trkpt lat="44.09305" lon="5.94902">
        <ele>434.1726074</ele>
        <time>2012-01-25T12:06:48Z</time>
      </trkpt>
      <trkpt lat="44.09306" lon="5.94902">
        <ele>438.0178223</ele>
        <time>2012-01-25T12:06:49Z</time>
      </trkpt>
      <trkpt lat="44.09305" lon="5.94902">
        <ele>441.8631592</ele>
        <time>2012-01-25T12:06:50Z</time>
      </trkpt>
      <trkpt lat="44.09305" lon="5.94903">
        <ele>445.708374</ele>
        <time>2012-01-25T12:06:51Z</time>
      </trkpt>
      <trkpt lat="44.09306" lon="5.94904">
        <ele>449.5537109</ele>
        <time>2012-01-25T12:06:52Z</time>
      </trkpt>
      <trkpt lat="44.09306" lon="5.94904">
        <ele>452.9182129</ele>
        <time>2012-01-25T12:06:53Z</time>
      </trkpt>
      <trkpt lat="44.09308" lon="5.94906">
        <ele>456.282959</ele>
        <time>2012-01-25T12:06:54Z</time>
      </trkpt>
      <trkpt lat="44.09313" lon="5.94907">
        <ele>459.647583</ele>
        <time>2012-01-25T12:06:55Z</time>
      </trkpt>
      <trkpt lat="44.09314" lon="5.94908">
        <ele>462.5313721</ele>
        <time>2012-01-25T12:06:56Z</time>
      </trkpt>
      <trkpt lat="44.09315" lon="5.94909">
        <ele>465.8961182</ele>
        <time>2012-01-25T12:06:57Z</time>
      </trkpt>
      <trkpt lat="44.09316" lon="5.94911">
        <ele>468.7800293</ele>
        <time>2012-01-25T12:06:58Z</time>
      </trkpt>
      <trkpt lat="44.09319" lon="5.94915">
        <ele>476.9512939</ele>
        <time>2012-01-25T12:07:01Z</time>
      </trkpt>
      <trkpt lat="44.0932" lon="5.94916">
        <ele>482.2385254</ele>
        <time>2012-01-25T12:07:03Z</time>
      </trkpt>
      <trkpt lat="44.0932" lon="5.94916">
        <ele>484.6418457</ele>
        <time>2012-01-25T12:07:04Z</time>
      </trkpt>
      <trkpt lat="44.09322" lon="5.94919">
        <ele>491.8516846</ele>
        <time>2012-01-25T12:07:07Z</time>
      </trkpt>
      <trkpt lat="44.09324" lon="5.94919">
        <ele>497.6196289</ele>
        <time>2012-01-25T12:07:10Z</time>
      </trkpt>
      <trkpt lat="44.09327" lon="5.9492">
        <ele>501.4648438</ele>
        <time>2012-01-25T12:07:12Z</time>
      </trkpt>
      <trkpt lat="44.0933" lon="5.94921">
        <ele>506.7520752</ele>
        <time>2012-01-25T12:07:15Z</time>
      </trkpt>
      <trkpt lat="44.09334" lon="5.94922">
        <ele>509.6361084</ele>
        <time>2012-01-25T12:07:17Z</time>
      </trkpt>
      <trkpt lat="44.09338" lon="5.94923">
        <ele>513.9620361</ele>
        <time>2012-01-25T12:07:20Z</time>
      </trkpt>
      <trkpt lat="44.09341" lon="5.94925">
        <ele>517.3266602</ele>
        <time>2012-01-25T12:07:23Z</time>
      </trkpt>
      <trkpt lat="44.09344" lon="5.94926">
        <ele>521.1719971</ele>
        <time>2012-01-25T12:07:26Z</time>
      </trkpt>
      <trkpt lat="44.09349" lon="5.94929">
        <ele>525.0172119</ele>
        <time>2012-01-25T12:07:30Z</time>
      </trkpt>
      <trkpt lat="44.09353" lon="5.94931">
        <ele>528.3818359</ele>
        <time>2012-01-25T12:07:33Z</time>
      </trkpt>
      <trkpt lat="44.09359" lon="5.94933">
        <ele>531.2657471</ele>
        <time>2012-01-25T12:07:37Z</time>
      </trkpt>
      <trkpt lat="44.0936" lon="5.94935">
        <ele>533.6689453</ele>
        <time>2012-01-25T12:07:40Z</time>
      </trkpt>
      <trkpt lat="44.09366" lon="5.94938">
        <ele>536.5531006</ele>
        <time>2012-01-25T12:07:45Z</time>
      </trkpt>
      <trkpt lat="44.0937" lon="5.94943">
        <ele>538.475708</ele>
        <time>2012-01-25T12:07:49Z</time>
      </trkpt>
      <trkpt lat="44.09372" lon="5.9495">
        <ele>539.4368896</ele>
        <time>2012-01-25T12:07:52Z</time>
      </trkpt>
      <trkpt lat="44.09378" lon="5.94949">
        <ele>541.3594971</ele>
        <time>2012-01-25T12:07:56Z</time>
      </trkpt>
      <trkpt lat="44.09388" lon="5.94955">
        <ele>544.7242432</ele>
        <time>2012-01-25T12:08:09Z</time>
      </trkpt>
      <trkpt lat="44.094" lon="5.94955">
        <ele>545.6855469</ele>
        <time>2012-01-25T12:08:20Z</time>
      </trkpt>
      <trkpt lat="44.09402" lon="5.94956">
        <ele>545.6855469</ele>
        <time>2012-01-25T12:08:22Z</time>
      </trkpt>
      <trkpt lat="44.09409" lon="5.94957">
        <ele>545.6855469</ele>
        <time>2012-01-25T12:08:27Z</time>
      </trkpt>
      <trkpt lat="44.09417" lon="5.94957">
        <ele>546.1662598</ele>
        <time>2012-01-25T12:08:32Z</time>
      </trkpt>
      <trkpt lat="44.09427" lon="5.9495">
        <ele>545.6855469</ele>
        <time>2012-01-25T12:08:44Z</time>
      </trkpt>
      <trkpt lat="44.09435" lon="5.94947">
        <ele>546.6468506</ele>
        <time>2012-01-25T12:08:54Z</time>
      </trkpt>
      <trkpt lat="44.09438" lon="5.94932">
        <ele>548.5693359</ele>
        <time>2012-01-25T12:09:05Z</time>
      </trkpt>
      <trkpt lat="44.09437" lon="5.94929">
        <ele>549.0500488</ele>
        <time>2012-01-25T12:09:07Z</time>
      </trkpt>
      <trkpt lat="44.09439" lon="5.94914">
        <ele>550.4921875</ele>
        <time>2012-01-25T12:09:22Z</time>
      </trkpt>
      <trkpt lat="44.09432" lon="5.94895">
        <ele>550.9726563</ele>
        <time>2012-01-25T12:09:36Z</time>
      </trkpt>
      <trkpt lat="44.09428" lon="5.94884">
        <ele>550.9726563</ele>
        <time>2012-01-25T12:09:45Z</time>
      </trkpt>
      <trkpt lat="44.09426" lon="5.94878">
        <ele>550.9726563</ele>
        <time>2012-01-25T12:09:49Z</time>
      </trkpt>
      <trkpt lat="44.09415" lon="5.94863">
        <ele>551.4533691</ele>
        <time>2012-01-25T12:10:02Z</time>
      </trkpt>
      <trkpt lat="44.0941" lon="5.9484">
        <ele>551.934082</ele>
        <time>2012-01-25T12:10:17Z</time>
      </trkpt>
      <trkpt lat="44.09408" lon="5.94836">
        <ele>552.4145508</ele>
        <time>2012-01-25T12:10:20Z</time>
      </trkpt>
      <trkpt lat="44.09406" lon="5.9483">
        <ele>552.4145508</ele>
        <time>2012-01-25T12:10:24Z</time>
      </trkpt>
      <trkpt lat="44.09396" lon="5.94811">
        <ele>553.8566895</ele>
        <time>2012-01-25T12:10:39Z</time>
      </trkpt>
      <trkpt lat="44.0939" lon="5.94792">
        <ele>555.7792969</ele>
        <time>2012-01-25T12:10:53Z</time>
      </trkpt>
      <trkpt lat="44.09381" lon="5.94776">
        <ele>557.2214355</ele>
        <time>2012-01-25T12:11:07Z</time>
      </trkpt>
      <trkpt lat="44.09381" lon="5.94775">
        <ele>557.7021484</ele>
        <time>2012-01-25T12:11:08Z</time>
      </trkpt>
      <trkpt lat="44.09374" lon="5.94769">
        <ele>558.6633301</ele>
        <time>2012-01-25T12:11:12Z</time>
      </trkpt>
      <trkpt lat="44.09371" lon="5.94765">
        <ele>558.6633301</ele>
        <time>2012-01-25T12:11:19Z</time>
      </trkpt>
      <trkpt lat="44.09361" lon="5.94752">
        <ele>560.5859375</ele>
        <time>2012-01-25T12:11:31Z</time>
      </trkpt>
      <trkpt lat="44.09356" lon="5.9475">
        <ele>562.0280762</ele>
        <time>2012-01-25T12:11:36Z</time>
      </trkpt>
      <trkpt lat="44.09348" lon="5.94746">
        <ele>563.4699707</ele>
        <time>2012-01-25T12:11:45Z</time>
      </trkpt>
      <trkpt lat="44.09339" lon="5.94736">
        <ele>565.3925781</ele>
        <time>2012-01-25T12:11:55Z</time>
      </trkpt>
      <trkpt lat="44.0933" lon="5.94731">
        <ele>566.8344727</ele>
        <time>2012-01-25T12:12:05Z</time>
      </trkpt>
      <trkpt lat="44.09326" lon="5.94729">
        <ele>567.7956543</ele>
        <time>2012-01-25T12:12:09Z</time>
      </trkpt>
      <trkpt lat="44.09318" lon="5.94717">
        <ele>570.6796875</ele>
        <time>2012-01-25T12:12:21Z</time>
      </trkpt>
      <trkpt lat="44.09307" lon="5.94705">
        <ele>572.6025391</ele>
        <time>2012-01-25T12:12:35Z</time>
      </trkpt>
      <trkpt lat="44.09299" lon="5.94698">
        <ele>574.0444336</ele>
        <time>2012-01-25T12:12:45Z</time>
      </trkpt>
      <trkpt lat="44.09298" lon="5.94694">
        <ele>574.5251465</ele>
        <time>2012-01-25T12:12:47Z</time>
      </trkpt>
      <trkpt lat="44.09292" lon="5.94678">
        <ele>575.967041</ele>
        <time>2012-01-25T12:12:59Z</time>
      </trkpt>
      <trkpt lat="44.09287" lon="5.94669">
        <ele>577.8896484</ele>
        <time>2012-01-25T12:13:07Z</time>
      </trkpt>
      <trkpt lat="44.0928" lon="5.94655">
        <ele>579.8122559</ele>
        <time>2012-01-25T12:13:19Z</time>
      </trkpt>
      <trkpt lat="44.09271" lon="5.94643">
        <ele>581.7348633</ele>
        <time>2012-01-25T12:13:30Z</time>
      </trkpt>
      <trkpt lat="44.09261" lon="5.94631">
        <ele>584.6188965</ele>
        <time>2012-01-25T12:13:45Z</time>
      </trkpt>
      <trkpt lat="44.09259" lon="5.94625">
        <ele>586.060791</ele>
        <time>2012-01-25T12:13:52Z</time>
      </trkpt>
      <trkpt lat="44.09259" lon="5.94615">
        <ele>587.0219727</ele>
        <time>2012-01-25T12:14:01Z</time>
      </trkpt>
      <trkpt lat="44.0926" lon="5.94593">
        <ele>589.90625</ele>
        <time>2012-01-25T12:14:17Z</time>
      </trkpt>
      <trkpt lat="44.09259" lon="5.94575">
        <ele>592.3095703</ele>
        <time>2012-01-25T12:14:33Z</time>
      </trkpt>
      <trkpt lat="44.09258" lon="5.94559">
        <ele>594.2321777</ele>
        <time>2012-01-25T12:14:45Z</time>
      </trkpt>
      <trkpt lat="44.09254" lon="5.94551">
        <ele>594.7126465</ele>
        <time>2012-01-25T12:14:51Z</time>
      </trkpt>
      <trkpt lat="44.09253" lon="5.94547">
        <ele>595.1933594</ele>
        <time>2012-01-25T12:14:54Z</time>
      </trkpt>
      <trkpt lat="44.09253" lon="5.94541">
        <ele>596.1547852</ele>
        <time>2012-01-25T12:14:59Z</time>
      </trkpt>
      <trkpt lat="44.09255" lon="5.94535">
        <ele>596.635498</ele>
        <time>2012-01-25T12:15:04Z</time>
      </trkpt>
      <trkpt lat="44.09255" lon="5.9453">
        <ele>597.1159668</ele>
        <time>2012-01-25T12:15:08Z</time>
      </trkpt>
      <trkpt lat="44.09252" lon="5.94519">
        <ele>598.5578613</ele>
        <time>2012-01-25T12:15:16Z</time>
      </trkpt>
      <trkpt lat="44.09251" lon="5.94498">
        <ele>599.0385742</ele>
        <time>2012-01-25T12:15:29Z</time>
      </trkpt>
      <trkpt lat="44.09257" lon="5.94476">
        <ele>600</ele>
        <time>2012-01-25T12:15:45Z</time>
      </trkpt>
      <trkpt lat="44.0926" lon="5.94472">
        <ele>600.4807129</ele>
        <time>2012-01-25T12:15:51Z</time>
      </trkpt>
      <trkpt lat="44.09261" lon="5.9447">
        <ele>600.9611816</ele>
        <time>2012-01-25T12:15:53Z</time>
      </trkpt>
      <trkpt lat="44.09267" lon="5.9445">
        <ele>601.9226074</ele>
        <time>2012-01-25T12:16:07Z</time>
      </trkpt>
      <trkpt lat="44.09273" lon="5.94432">
        <ele>602.8837891</ele>
        <time>2012-01-25T12:16:19Z</time>
      </trkpt>
      <trkpt lat="44.09279" lon="5.94417">
        <ele>603.364502</ele>
        <time>2012-01-25T12:16:33Z</time>
      </trkpt>
      <trkpt lat="44.09282" lon="5.94394">
        <ele>603.8452148</ele>
        <time>2012-01-25T12:16:47Z</time>
      </trkpt>
      <trkpt lat="44.09281" lon="5.94368">
        <ele>605.2873535</ele>
        <time>2012-01-25T12:17:02Z</time>
      </trkpt>
      <trkpt lat="44.0928" lon="5.9436">
        <ele>605.2873535</ele>
        <time>2012-01-25T12:17:07Z</time>
      </trkpt>
      <trkpt lat="44.09274" lon="5.9434">
        <ele>605.7680664</ele>
        <time>2012-01-25T12:17:21Z</time>
      </trkpt>
      <trkpt lat="44.09273" lon="5.94326">
        <ele>606.2485352</ele>
        <time>2012-01-25T12:17:34Z</time>
      </trkpt>
      <trkpt lat="44.09277" lon="5.94309">
        <ele>605.2873535</ele>
        <time>2012-01-25T12:17:45Z</time>
      </trkpt>
      <trkpt lat="44.09284" lon="5.94293">
        <ele>604.8066406</ele>
        <time>2012-01-25T12:18:01Z</time>
      </trkpt>
      <trkpt lat="44.09286" lon="5.94277">
        <ele>604.8066406</ele>
        <time>2012-01-25T12:18:13Z</time>
      </trkpt>
      <trkpt lat="44.09286" lon="5.94251">
        <ele>604.8066406</ele>
        <time>2012-01-25T12:18:27Z</time>
      </trkpt>
      <trkpt lat="44.09286" lon="5.94245">
        <ele>604.8066406</ele>
        <time>2012-01-25T12:18:30Z</time>
      </trkpt>
      <trkpt lat="44.09287" lon="5.94227">
        <ele>605.2873535</ele>
        <time>2012-01-25T12:18:43Z</time>
      </trkpt>
      <trkpt lat="44.09287" lon="5.94211">
        <ele>605.7680664</ele>
        <time>2012-01-25T12:18:52Z</time>
      </trkpt>
      <trkpt lat="44.09284" lon="5.94201">
        <ele>606.729248</ele>
        <time>2012-01-25T12:19:01Z</time>
      </trkpt>
      <trkpt lat="44.09271" lon="5.94186">
        <ele>607.2099609</ele>
        <time>2012-01-25T12:19:16Z</time>
      </trkpt>
      <trkpt lat="44.09268" lon="5.94183">
        <ele>607.2099609</ele>
        <time>2012-01-25T12:19:19Z</time>
      </trkpt>
      <trkpt lat="44.09266" lon="5.94181">
        <ele>607.2099609</ele>
        <time>2012-01-25T12:19:22Z</time>
      </trkpt>
      <trkpt lat="44.09263" lon="5.94178">
        <ele>607.6906738</ele>
        <time>2012-01-25T12:19:25Z</time>
      </trkpt>
      <trkpt lat="44.09257" lon="5.94164">
        <ele>608.6518555</ele>
        <time>2012-01-25T12:19:35Z</time>
      </trkpt>
      <trkpt lat="44.09251" lon="5.94156">
        <ele>609.1325684</ele>
        <time>2012-01-25T12:19:44Z</time>
      </trkpt>
      <trkpt lat="44.09246" lon="5.94158">
        <ele>609.1325684</ele>
        <time>2012-01-25T12:19:49Z</time>
      </trkpt>
      <trkpt lat="44.09235" lon="5.94142">
        <ele>610.09375</ele>
        <time>2012-01-25T12:20:03Z</time>
      </trkpt>
      <trkpt lat="44.09229" lon="5.9413">
        <ele>611.0551758</ele>
        <time>2012-01-25T12:20:15Z</time>
      </trkpt>
      <trkpt lat="44.09221" lon="5.94113">
        <ele>612.4970703</ele>
        <time>2012-01-25T12:20:28Z</time>
      </trkpt>
      <trkpt lat="44.09221" lon="5.94108">
        <ele>612.9777832</ele>
        <time>2012-01-25T12:20:32Z</time>
      </trkpt>
      <trkpt lat="44.09225" lon="5.94088">
        <ele>615.8618164</ele>
        <time>2012-01-25T12:20:47Z</time>
      </trkpt>
      <trkpt lat="44.0923" lon="5.94075">
        <ele>617.7841797</ele>
        <time>2012-01-25T12:20:59Z</time>
      </trkpt>
      <trkpt lat="44.09238" lon="5.9406">
        <ele>620.1877441</ele>
        <time>2012-01-25T12:21:14Z</time>
      </trkpt>
      <trkpt lat="44.0925" lon="5.94046">
        <ele>622.5910645</ele>
        <time>2012-01-25T12:21:30Z</time>
      </trkpt>
      <trkpt lat="44.09258" lon="5.94035">
        <ele>624.032959</ele>
        <time>2012-01-25T12:21:44Z</time>
      </trkpt>
      <trkpt lat="44.09261" lon="5.94031">
        <ele>624.9943848</ele>
        <time>2012-01-25T12:21:59Z</time>
      </trkpt>
      <trkpt lat="44.09271" lon="5.94022">
        <ele>625.9555664</ele>
        <time>2012-01-25T12:22:08Z</time>
      </trkpt>
      <trkpt lat="44.0928" lon="5.94015">
        <ele>627.3977051</ele>
        <time>2012-01-25T12:22:21Z</time>
      </trkpt>
      <trkpt lat="44.09289" lon="5.94003">
        <ele>628.8395996</ele>
        <time>2012-01-25T12:22:34Z</time>
      </trkpt>
      <trkpt lat="44.09295" lon="5.93989">
        <ele>630.2814941</ele>
        <time>2012-01-25T12:22:47Z</time>
      </trkpt>
      <trkpt lat="44.09301" lon="5.93977">
        <ele>631.2429199</ele>
        <time>2012-01-25T12:23:00Z</time>
      </trkpt>
      <trkpt lat="44.09308" lon="5.93962">
        <ele>632.6848145</ele>
        <time>2012-01-25T12:23:14Z</time>
      </trkpt>
      <trkpt lat="44.09313" lon="5.93945">
        <ele>634.126709</ele>
        <time>2012-01-25T12:23:28Z</time>
      </trkpt>
      <trkpt lat="44.09318" lon="5.93931">
        <ele>635.5686035</ele>
        <time>2012-01-25T12:23:41Z</time>
      </trkpt>
      <trkpt lat="44.09323" lon="5.93919">
        <ele>636.5302734</ele>
        <time>2012-01-25T12:23:56Z</time>
      </trkpt>
      <trkpt lat="44.09326" lon="5.9391">
        <ele>637.4914551</ele>
        <time>2012-01-25T12:24:03Z</time>
      </trkpt>
      <trkpt lat="44.09331" lon="5.93892">
        <ele>639.4140625</ele>
        <time>2012-01-25T12:24:17Z</time>
      </trkpt>
      <trkpt lat="44.09328" lon="5.93873">
        <ele>641.3366699</ele>
        <time>2012-01-25T12:24:31Z</time>
      </trkpt>
      <trkpt lat="44.09328" lon="5.9387">
        <ele>641.8173828</ele>
        <time>2012-01-25T12:24:33Z</time>
      </trkpt>
      <trkpt lat="44.09327" lon="5.93859">
        <ele>642.7788086</ele>
        <time>2012-01-25T12:24:46Z</time>
      </trkpt>
      <trkpt lat="44.09328" lon="5.93847">
        <ele>643.7399902</ele>
        <time>2012-01-25T12:24:57Z</time>
      </trkpt>
      <trkpt lat="44.09327" lon="5.93837">
        <ele>643.7399902</ele>
        <time>2012-01-25T12:25:05Z</time>
      </trkpt>
      <trkpt lat="44.09326" lon="5.9381">
        <ele>644.7011719</ele>
        <time>2012-01-25T12:25:20Z</time>
      </trkpt>
      <trkpt lat="44.09325" lon="5.93788">
        <ele>646.6240234</ele>
        <time>2012-01-25T12:25:34Z</time>
      </trkpt>
      <trkpt lat="44.09322" lon="5.93776">
        <ele>648.065918</ele>
        <time>2012-01-25T12:25:47Z</time>
      </trkpt>
      <trkpt lat="44.09314" lon="5.93761">
        <ele>649.5078125</ele>
        <time>2012-01-25T12:26:00Z</time>
      </trkpt>
      <trkpt lat="44.09311" lon="5.93748">
        <ele>650.4692383</ele>
        <time>2012-01-25T12:26:09Z</time>
      </trkpt>
      <trkpt lat="44.09315" lon="5.93729">
        <ele>650.4692383</ele>
        <time>2012-01-25T12:26:24Z</time>
      </trkpt>
      <trkpt lat="44.09315" lon="5.93725">
        <ele>650.949707</ele>
        <time>2012-01-25T12:26:27Z</time>
      </trkpt>
      <trkpt lat="44.09314" lon="5.93714">
        <ele>651.4304199</ele>
        <time>2012-01-25T12:26:34Z</time>
      </trkpt>
      <trkpt lat="44.09314" lon="5.93695">
        <ele>652.3918457</ele>
        <time>2012-01-25T12:26:46Z</time>
      </trkpt>
      <trkpt lat="44.09313" lon="5.93675">
        <ele>652.8725586</ele>
        <time>2012-01-25T12:27:00Z</time>
      </trkpt>
      <trkpt lat="44.09312" lon="5.93662">
        <ele>653.3532715</ele>
        <time>2012-01-25T12:27:08Z</time>
      </trkpt>
      <trkpt lat="44.09312" lon="5.93639">
        <ele>654.3146973</ele>
        <time>2012-01-25T12:27:24Z</time>
      </trkpt>
      <trkpt lat="44.09312" lon="5.93631">
        <ele>654.3146973</ele>
        <time>2012-01-25T12:27:30Z</time>
      </trkpt>
      <trkpt lat="44.09307" lon="5.93614">
        <ele>655.7565918</ele>
        <time>2012-01-25T12:27:44Z</time>
      </trkpt>
      <trkpt lat="44.09305" lon="5.93608">
        <ele>655.7565918</ele>
        <time>2012-01-25T12:27:48Z</time>
      </trkpt>
      <trkpt lat="44.09303" lon="5.93601">
        <ele>656.2370605</ele>
        <time>2012-01-25T12:27:52Z</time>
      </trkpt>
      <trkpt lat="44.09301" lon="5.93597">
        <ele>655.7565918</ele>
        <time>2012-01-25T12:27:56Z</time>
      </trkpt>
      <trkpt lat="44.09293" lon="5.93575">
        <ele>657.6791992</ele>
        <time>2012-01-25T12:28:12Z</time>
      </trkpt>
      <trkpt lat="44.09277" lon="5.93568">
        <ele>658.1599121</ele>
        <time>2012-01-25T12:28:26Z</time>
      </trkpt>
      <trkpt lat="44.09276" lon="5.93567">
        <ele>658.1599121</ele>
        <time>2012-01-25T12:28:27Z</time>
      </trkpt>
      <trkpt lat="44.09272" lon="5.93564">
        <ele>658.6403809</ele>
        <time>2012-01-25T12:28:31Z</time>
      </trkpt>
      <trkpt lat="44.0927" lon="5.93559">
        <ele>659.1210938</ele>
        <time>2012-01-25T12:28:34Z</time>
      </trkpt>
      <trkpt lat="44.09259" lon="5.9354">
        <ele>660.0822754</ele>
        <time>2012-01-25T12:28:52Z</time>
      </trkpt>
      <trkpt lat="44.09255" lon="5.93537">
        <ele>660.5629883</ele>
        <time>2012-01-25T12:28:56Z</time>
      </trkpt>
      <trkpt lat="44.09249" lon="5.93528">
        <ele>661.0437012</ele>
        <time>2012-01-25T12:29:04Z</time>
      </trkpt>
      <trkpt lat="44.09238" lon="5.93511">
        <ele>662.4855957</ele>
        <time>2012-01-25T12:29:18Z</time>
      </trkpt>
      <trkpt lat="44.09238" lon="5.93493">
        <ele>663.4470215</ele>
        <time>2012-01-25T12:29:32Z</time>
      </trkpt>
      <trkpt lat="44.09233" lon="5.93468">
        <ele>663.9274902</ele>
        <time>2012-01-25T12:29:47Z</time>
      </trkpt>
      <trkpt lat="44.0923" lon="5.93452">
        <ele>664.4082031</ele>
        <time>2012-01-25T12:29:58Z</time>
      </trkpt>
      <trkpt lat="44.09227" lon="5.9344">
        <ele>664.888916</ele>
        <time>2012-01-25T12:30:06Z</time>
      </trkpt>
      <trkpt lat="44.09225" lon="5.93432">
        <ele>665.3696289</ele>
        <time>2012-01-25T12:30:19Z</time>
      </trkpt>
      <trkpt lat="44.0923" lon="5.93447">
        <ele>664.888916</ele>
        <time>2012-01-25T12:30:29Z</time>
      </trkpt>
      <trkpt lat="44.09246" lon="5.93453">
        <ele>664.888916</ele>
        <time>2012-01-25T12:30:42Z</time>
      </trkpt>
      <trkpt lat="44.09254" lon="5.93454">
        <ele>664.888916</ele>
        <time>2012-01-25T12:30:49Z</time>
      </trkpt>
      <trkpt lat="44.09264" lon="5.93461">
        <ele>665.3696289</ele>
        <time>2012-01-25T12:31:03Z</time>
      </trkpt>
      <trkpt lat="44.09285" lon="5.93465">
        <ele>664.4082031</ele>
        <time>2012-01-25T12:31:17Z</time>
      </trkpt>
      <trkpt lat="44.09286" lon="5.93464">
        <ele>663.9274902</ele>
        <time>2012-01-25T12:31:26Z</time>
      </trkpt>
      <trkpt lat="44.0929" lon="5.93467">
        <ele>663.9274902</ele>
        <time>2012-01-25T12:31:30Z</time>
      </trkpt>
      <trkpt lat="44.09293" lon="5.93468">
        <ele>663.9274902</ele>
        <time>2012-01-25T12:31:32Z</time>
      </trkpt>
      <trkpt lat="44.09306" lon="5.93472">
        <ele>663.4470215</ele>
        <time>2012-01-25T12:31:44Z</time>
      </trkpt>
      <trkpt lat="44.09314" lon="5.93475">
        <ele>662.9663086</ele>
        <time>2012-01-25T12:31:56Z</time>
      </trkpt>
      <trkpt lat="44.09323" lon="5.93475">
        <ele>662.9663086</ele>
        <time>2012-01-25T12:32:07Z</time>
      </trkpt>
      <trkpt lat="44.09328" lon="5.93477">
        <ele>662.4855957</ele>
        <time>2012-01-25T12:32:13Z</time>
      </trkpt>
      <trkpt lat="44.09332" lon="5.93479">
        <ele>662.4855957</ele>
        <time>2012-01-25T12:32:17Z</time>
      </trkpt>
      <trkpt lat="44.0934" lon="5.93482">
        <ele>662.4855957</ele>
        <time>2012-01-25T12:32:26Z</time>
      </trkpt>
      <trkpt lat="44.09351" lon="5.93487">
        <ele>662.4855957</ele>
        <time>2012-01-25T12:32:38Z</time>
      </trkpt>
      <trkpt lat="44.09356" lon="5.93489">
        <ele>662.4855957</ele>
        <time>2012-01-25T12:32:43Z</time>
      </trkpt>
      <trkpt lat="44.09371" lon="5.93489">
        <ele>662.005127</ele>
        <time>2012-01-25T12:32:56Z</time>
      </trkpt>
      <trkpt lat="44.09378" lon="5.93502">
        <ele>662.005127</ele>
        <time>2012-01-25T12:33:07Z</time>
      </trkpt>
      <trkpt lat="44.09389" lon="5.93501">
        <ele>661.5244141</ele>
        <time>2012-01-25T12:33:18Z</time>
      </trkpt>
      <trkpt lat="44.09403" lon="5.9351">
        <ele>661.0437012</ele>
        <time>2012-01-25T12:33:33Z</time>
      </trkpt>
      <trkpt lat="44.09415" lon="5.93514">
        <ele>660.5629883</ele>
        <time>2012-01-25T12:33:45Z</time>
      </trkpt>
      <trkpt lat="44.09429" lon="5.93524">
        <ele>660.0822754</ele>
        <time>2012-01-25T12:33:58Z</time>
      </trkpt>
      <trkpt lat="44.09432" lon="5.93535">
        <ele>659.1210938</ele>
        <time>2012-01-25T12:34:10Z</time>
      </trkpt>
      <trkpt lat="44.09433" lon="5.93538">
        <ele>658.6403809</ele>
        <time>2012-01-25T12:34:13Z</time>
      </trkpt>
      <trkpt lat="44.09432" lon="5.93558">
        <ele>656.7177734</ele>
        <time>2012-01-25T12:34:28Z</time>
      </trkpt>
      <trkpt lat="44.09435" lon="5.93569">
        <ele>656.2370605</ele>
        <time>2012-01-25T12:34:43Z</time>
      </trkpt>
      <trkpt lat="44.09439" lon="5.93571">
        <ele>655.7565918</ele>
        <time>2012-01-25T12:34:47Z</time>
      </trkpt>
      <trkpt lat="44.09439" lon="5.93573">
        <ele>655.7565918</ele>
        <time>2012-01-25T12:34:49Z</time>
      </trkpt>
      <trkpt lat="44.09457" lon="5.93575">
        <ele>655.7565918</ele>
        <time>2012-01-25T12:35:03Z</time>
      </trkpt>
      <trkpt lat="44.09459" lon="5.93575">
        <ele>656.2370605</ele>
        <time>2012-01-25T12:35:16Z</time>
      </trkpt>
      <trkpt lat="44.09462" lon="5.93574">
        <ele>656.2370605</ele>
        <time>2012-01-25T12:36:13Z</time>
      </trkpt>
      <trkpt lat="44.09464" lon="5.93573">
        <ele>656.2370605</ele>
        <time>2012-01-25T12:36:15Z</time>
      </trkpt>
      <trkpt lat="44.09481" lon="5.93571">
        <ele>656.2370605</ele>
        <time>2012-01-25T12:36:30Z</time>
      </trkpt>
      <trkpt lat="44.09483" lon="5.93571">
        <ele>656.2370605</ele>
        <time>2012-01-25T12:36:32Z</time>
      </trkpt>
      <trkpt lat="44.0949" lon="5.93576">
        <ele>656.2370605</ele>
        <time>2012-01-25T12:36:41Z</time>
      </trkpt>
      <trkpt lat="44.09496" lon="5.93579">
        <ele>656.2370605</ele>
        <time>2012-01-25T12:36:48Z</time>
      </trkpt>
      <trkpt lat="44.09513" lon="5.93586">
        <ele>656.2370605</ele>
        <time>2012-01-25T12:37:03Z</time>
      </trkpt>
      <trkpt lat="44.09513" lon="5.93588">
        <ele>656.2370605</ele>
        <time>2012-01-25T12:37:04Z</time>
      </trkpt>
      <trkpt lat="44.09523" lon="5.936">
        <ele>656.7177734</ele>
        <time>2012-01-25T12:37:15Z</time>
      </trkpt>
      <trkpt lat="44.09536" lon="5.93608">
        <ele>657.1984863</ele>
        <time>2012-01-25T12:37:30Z</time>
      </trkpt>
      <trkpt lat="44.09537" lon="5.93609">
        <ele>657.1984863</ele>
        <time>2012-01-25T12:37:31Z</time>
      </trkpt>
      <trkpt lat="44.09557" lon="5.93619">
        <ele>658.1599121</ele>
        <time>2012-01-25T12:37:49Z</time>
      </trkpt>
      <trkpt lat="44.09563" lon="5.93623">
        <ele>658.1599121</ele>
        <time>2012-01-25T12:37:55Z</time>
      </trkpt>
      <trkpt lat="44.09569" lon="5.93628">
        <ele>658.1599121</ele>
        <time>2012-01-25T12:38:01Z</time>
      </trkpt>
      <trkpt lat="44.09576" lon="5.93632">
        <ele>658.6403809</ele>
        <time>2012-01-25T12:38:07Z</time>
      </trkpt>
      <trkpt lat="44.0959" lon="5.93647">
        <ele>659.1210938</ele>
        <time>2012-01-25T12:38:23Z</time>
      </trkpt>
      <trkpt lat="44.09591" lon="5.93648">
        <ele>659.1210938</ele>
        <time>2012-01-25T12:38:24Z</time>
      </trkpt>
      <trkpt lat="44.0961" lon="5.93657">
        <ele>661.0437012</ele>
        <time>2012-01-25T12:38:42Z</time>
      </trkpt>
      <trkpt lat="44.09625" lon="5.93665">
        <ele>662.4855957</ele>
        <time>2012-01-25T12:38:57Z</time>
      </trkpt>
      <trkpt lat="44.09632" lon="5.9367">
        <ele>662.9663086</ele>
        <time>2012-01-25T12:39:06Z</time>
      </trkpt>
      <trkpt lat="44.09646" lon="5.93679">
        <ele>664.4082031</ele>
        <time>2012-01-25T12:39:22Z</time>
      </trkpt>
      <trkpt lat="44.0966" lon="5.93692">
        <ele>664.4082031</ele>
        <time>2012-01-25T12:39:37Z</time>
      </trkpt>
      <trkpt lat="44.09675" lon="5.93707">
        <ele>663.9274902</ele>
        <time>2012-01-25T12:39:53Z</time>
      </trkpt>
      <trkpt lat="44.09684" lon="5.93725">
        <ele>664.888916</ele>
        <time>2012-01-25T12:40:07Z</time>
      </trkpt>
      <trkpt lat="44.09699" lon="5.93729">
        <ele>666.3308105</ele>
        <time>2012-01-25T12:40:21Z</time>
      </trkpt>
      <trkpt lat="44.09714" lon="5.93728">
        <ele>668.2536621</ele>
        <time>2012-01-25T12:40:36Z</time>
      </trkpt>
      <trkpt lat="44.09726" lon="5.93729">
        <ele>669.2150879</ele>
        <time>2012-01-25T12:40:47Z</time>
      </trkpt>
      <trkpt lat="44.09738" lon="5.93729">
        <ele>671.1376953</ele>
        <time>2012-01-25T12:41:01Z</time>
      </trkpt>
      <trkpt lat="44.09745" lon="5.93728">
        <ele>672.098877</ele>
        <time>2012-01-25T12:41:09Z</time>
      </trkpt>
      <trkpt lat="44.09758" lon="5.93724">
        <ele>673.5410156</ele>
        <time>2012-01-25T12:41:24Z</time>
      </trkpt>
      <trkpt lat="44.0976" lon="5.93724">
        <ele>674.0214844</ele>
        <time>2012-01-25T12:41:26Z</time>
      </trkpt>
      <trkpt lat="44.09776" lon="5.93719">
        <ele>675.9440918</ele>
        <time>2012-01-25T12:41:42Z</time>
      </trkpt>
      <trkpt lat="44.09779" lon="5.93718">
        <ele>676.4248047</ele>
        <time>2012-01-25T12:41:46Z</time>
      </trkpt>
      <trkpt lat="44.0979" lon="5.93713">
        <ele>677.8666992</ele>
        <time>2012-01-25T12:42:00Z</time>
      </trkpt>
      <trkpt lat="44.09794" lon="5.93712">
        <ele>678.3474121</ele>
        <time>2012-01-25T12:42:05Z</time>
      </trkpt>
      <trkpt lat="44.09804" lon="5.93706">
        <ele>679.3085938</ele>
        <time>2012-01-25T12:42:18Z</time>
      </trkpt>
      <trkpt lat="44.09808" lon="5.93705">
        <ele>679.7893066</ele>
        <time>2012-01-25T12:42:23Z</time>
      </trkpt>
      <trkpt lat="44.0982" lon="5.93697">
        <ele>681.2314453</ele>
        <time>2012-01-25T12:42:38Z</time>
      </trkpt>
      <trkpt lat="44.09824" lon="5.93694">
        <ele>682.192627</ele>
        <time>2012-01-25T12:42:56Z</time>
      </trkpt>
      <trkpt lat="44.09833" lon="5.9369">
        <ele>683.6345215</ele>
        <time>2012-01-25T12:43:09Z</time>
      </trkpt>
      <trkpt lat="44.09842" lon="5.93688">
        <ele>684.5961914</ele>
        <time>2012-01-25T12:43:19Z</time>
      </trkpt>
      <trkpt lat="44.09855" lon="5.93683">
        <ele>686.0380859</ele>
        <time>2012-01-25T12:43:32Z</time>
      </trkpt>
      <trkpt lat="44.09868" lon="5.93683">
        <ele>687.4799805</ele>
        <time>2012-01-25T12:43:45Z</time>
      </trkpt>
      <trkpt lat="44.09872" lon="5.93681">
        <ele>687.9606934</ele>
        <time>2012-01-25T12:43:49Z</time>
      </trkpt>
      <trkpt lat="44.09878" lon="5.93677">
        <ele>688.9221191</ele>
        <time>2012-01-25T12:43:57Z</time>
      </trkpt>
      <trkpt lat="44.0989" lon="5.93669">
        <ele>690.8444824</ele>
        <time>2012-01-25T12:44:11Z</time>
      </trkpt>
      <trkpt lat="44.09903" lon="5.93659">
        <ele>692.767334</ele>
        <time>2012-01-25T12:44:25Z</time>
      </trkpt>
      <trkpt lat="44.09908" lon="5.9365">
        <ele>694.6896973</ele>
        <time>2012-01-25T12:44:43Z</time>
      </trkpt>
      <trkpt lat="44.09919" lon="5.93639">
        <ele>696.6125488</ele>
        <time>2012-01-25T12:44:57Z</time>
      </trkpt>
      <trkpt lat="44.09929" lon="5.93627">
        <ele>699.015625</ele>
        <time>2012-01-25T12:45:11Z</time>
      </trkpt>
      <trkpt lat="44.09931" lon="5.9362">
        <ele>699.9770508</ele>
        <time>2012-01-25T12:45:19Z</time>
      </trkpt>
      <trkpt lat="44.0994" lon="5.93606">
        <ele>701.8999023</ele>
        <time>2012-01-25T12:45:35Z</time>
      </trkpt>
      <trkpt lat="44.09941" lon="5.93606">
        <ele>702.3803711</ele>
        <time>2012-01-25T12:45:36Z</time>
      </trkpt>
      <trkpt lat="44.09951" lon="5.93591">
        <ele>704.7836914</ele>
        <time>2012-01-25T12:45:52Z</time>
      </trkpt>
      <trkpt lat="44.09955" lon="5.93588">
        <ele>705.7451172</ele>
        <time>2012-01-25T12:45:59Z</time>
      </trkpt>
      <trkpt lat="44.09963" lon="5.93579">
        <ele>707.1870117</ele>
        <time>2012-01-25T12:46:13Z</time>
      </trkpt>
      <trkpt lat="44.0997" lon="5.93565">
        <ele>710.0708008</ele>
        <time>2012-01-25T12:46:29Z</time>
      </trkpt>
      <trkpt lat="44.09971" lon="5.93561">
        <ele>710.5515137</ele>
        <time>2012-01-25T12:46:33Z</time>
      </trkpt>
      <trkpt lat="44.09977" lon="5.93541">
        <ele>712.954834</ele>
        <time>2012-01-25T12:46:49Z</time>
      </trkpt>
      <trkpt lat="44.09977" lon="5.93523">
        <ele>714.8774414</ele>
        <time>2012-01-25T12:47:05Z</time>
      </trkpt>
      <trkpt lat="44.09976" lon="5.93519">
        <ele>714.8774414</ele>
        <time>2012-01-25T12:47:07Z</time>
      </trkpt>
      <trkpt lat="44.09977" lon="5.93516">
        <ele>715.3581543</ele>
        <time>2012-01-25T12:47:09Z</time>
      </trkpt>
      <trkpt lat="44.09975" lon="5.93505">
        <ele>716.3195801</ele>
        <time>2012-01-25T12:47:17Z</time>
      </trkpt>
      <trkpt lat="44.09973" lon="5.9349">
        <ele>717.7614746</ele>
        <time>2012-01-25T12:47:30Z</time>
      </trkpt>
      <trkpt lat="44.09971" lon="5.93469">
        <ele>719.6843262</ele>
        <time>2012-01-25T12:47:47Z</time>
      </trkpt>
      <trkpt lat="44.0997" lon="5.9345">
        <ele>721.1262207</ele>
        <time>2012-01-25T12:48:01Z</time>
      </trkpt>
      <trkpt lat="44.09971" lon="5.93431">
        <ele>722.0874023</ele>
        <time>2012-01-25T12:48:15Z</time>
      </trkpt>
      <trkpt lat="44.09974" lon="5.93409">
        <ele>723.0488281</ele>
        <time>2012-01-25T12:48:31Z</time>
      </trkpt>
      <trkpt lat="44.09977" lon="5.93387">
        <ele>722.5681152</ele>
        <time>2012-01-25T12:48:45Z</time>
      </trkpt>
      <trkpt lat="44.09978" lon="5.93378">
        <ele>723.0488281</ele>
        <time>2012-01-25T12:48:51Z</time>
      </trkpt>
      <trkpt lat="44.0998" lon="5.93373">
        <ele>723.0488281</ele>
        <time>2012-01-25T12:48:54Z</time>
      </trkpt>
      <trkpt lat="44.09989" lon="5.93354">
        <ele>723.529541</ele>
        <time>2012-01-25T12:49:09Z</time>
      </trkpt>
      <trkpt lat="44.09992" lon="5.9334">
        <ele>723.0488281</ele>
        <time>2012-01-25T12:49:24Z</time>
      </trkpt>
      <trkpt lat="44.09992" lon="5.93337">
        <ele>726.4133301</ele>
        <time>2012-01-25T12:54:37Z</time>
      </trkpt>
      <trkpt lat="44.09998" lon="5.93318">
        <ele>725.4519043</ele>
        <time>2012-01-25T12:54:51Z</time>
      </trkpt>
      <trkpt lat="44.10004" lon="5.93297">
        <ele>726.4133301</ele>
        <time>2012-01-25T12:55:07Z</time>
      </trkpt>
      <trkpt lat="44.10006" lon="5.9329">
        <ele>726.4133301</ele>
        <time>2012-01-25T12:55:13Z</time>
      </trkpt>
      <trkpt lat="44.10013" lon="5.93273">
        <ele>727.3747559</ele>
        <time>2012-01-25T12:55:27Z</time>
      </trkpt>
      <trkpt lat="44.10019" lon="5.93255">
        <ele>727.8552246</ele>
        <time>2012-01-25T12:55:40Z</time>
      </trkpt>
      <trkpt lat="44.10026" lon="5.9324">
        <ele>728.3359375</ele>
        <time>2012-01-25T12:55:53Z</time>
      </trkpt>
      <trkpt lat="44.10029" lon="5.93237">
        <ele>728.8166504</ele>
        <time>2012-01-25T12:55:57Z</time>
      </trkpt>
      <trkpt lat="44.10032" lon="5.93224">
        <ele>729.2971191</ele>
        <time>2012-01-25T12:56:08Z</time>
      </trkpt>
      <trkpt lat="44.10036" lon="5.93202">
        <ele>730.2585449</ele>
        <time>2012-01-25T12:56:24Z</time>
      </trkpt>
      <trkpt lat="44.10037" lon="5.93194">
        <ele>730.7392578</ele>
        <time>2012-01-25T12:56:30Z</time>
      </trkpt>
      <trkpt lat="44.10038" lon="5.9318">
        <ele>731.7004395</ele>
        <time>2012-01-25T12:56:40Z</time>
      </trkpt>
      <trkpt lat="44.10038" lon="5.93164">
        <ele>732.1813965</ele>
        <time>2012-01-25T12:56:53Z</time>
      </trkpt>
      <trkpt lat="44.10042" lon="5.93146">
        <ele>733.1425781</ele>
        <time>2012-01-25T12:57:07Z</time>
      </trkpt>
      <trkpt lat="44.10042" lon="5.93127">
        <ele>734.5847168</ele>
        <time>2012-01-25T12:57:21Z</time>
      </trkpt>
      <trkpt lat="44.10046" lon="5.93109">
        <ele>735.5458984</ele>
        <time>2012-01-25T12:57:36Z</time>
      </trkpt>
      <trkpt lat="44.10049" lon="5.93094">
        <ele>736.5073242</ele>
        <time>2012-01-25T12:57:47Z</time>
      </trkpt>
      <trkpt lat="44.10052" lon="5.93082">
        <ele>737.9492188</ele>
        <time>2012-01-25T12:57:59Z</time>
      </trkpt>
      <trkpt lat="44.10056" lon="5.93068">
        <ele>739.3911133</ele>
        <time>2012-01-25T12:58:11Z</time>
      </trkpt>
      <trkpt lat="44.10061" lon="5.93049">
        <ele>740.8330078</ele>
        <time>2012-01-25T12:58:25Z</time>
      </trkpt>
      <trkpt lat="44.10063" lon="5.93043">
        <ele>741.7944336</ele>
        <time>2012-01-25T12:58:30Z</time>
      </trkpt>
      <trkpt lat="44.10071" lon="5.9303">
        <ele>743.2363281</ele>
        <time>2012-01-25T12:58:44Z</time>
      </trkpt>
      <trkpt lat="44.10082" lon="5.93018">
        <ele>745.1589355</ele>
        <time>2012-01-25T12:59:00Z</time>
      </trkpt>
      <trkpt lat="44.10093" lon="5.9301">
        <ele>747.081543</ele>
        <time>2012-01-25T12:59:17Z</time>
      </trkpt>
      <trkpt lat="44.10101" lon="5.93">
        <ele>749.0043945</ele>
        <time>2012-01-25T12:59:30Z</time>
      </trkpt>
      <trkpt lat="44.10112" lon="5.92983">
        <ele>751.4077148</ele>
        <time>2012-01-25T12:59:49Z</time>
      </trkpt>
      <trkpt lat="44.10125" lon="5.9297">
        <ele>754.7722168</ele>
        <time>2012-01-25T13:00:07Z</time>
      </trkpt>
      <trkpt lat="44.10135" lon="5.92958">
        <ele>755.7336426</ele>
        <time>2012-01-25T13:00:24Z</time>
      </trkpt>
      <trkpt lat="44.10141" lon="5.92947">
        <ele>758.1369629</ele>
        <time>2012-01-25T13:00:39Z</time>
      </trkpt>
      <trkpt lat="44.10148" lon="5.92929">
        <ele>760.0593262</ele>
        <time>2012-01-25T13:00:54Z</time>
      </trkpt>
      <trkpt lat="44.10152" lon="5.92917">
        <ele>761.5014648</ele>
        <time>2012-01-25T13:01:06Z</time>
      </trkpt>
      <trkpt lat="44.10155" lon="5.92914">
        <ele>761.9821777</ele>
        <time>2012-01-25T13:01:10Z</time>
      </trkpt>
      <trkpt lat="44.10163" lon="5.92897">
        <ele>762.9433594</ele>
        <time>2012-01-25T13:01:29Z</time>
      </trkpt>
      <trkpt lat="44.10162" lon="5.92873">
        <ele>765.3469238</ele>
        <time>2012-01-25T13:01:48Z</time>
      </trkpt>
      <trkpt lat="44.10161" lon="5.92857">
        <ele>767.75</ele>
        <time>2012-01-25T13:02:04Z</time>
      </trkpt>
      <trkpt lat="44.10154" lon="5.92848">
        <ele>767.2695313</ele>
        <time>2012-01-25T13:02:40Z</time>
      </trkpt>
      <trkpt lat="44.10148" lon="5.92846">
        <ele>766.7888184</ele>
        <time>2012-01-25T13:02:54Z</time>
      </trkpt>
      <trkpt lat="44.10145" lon="5.92847">
        <ele>766.3081055</ele>
        <time>2012-01-25T13:03:09Z</time>
      </trkpt>
      <trkpt lat="44.10145" lon="5.92857">
        <ele>765.3469238</ele>
        <time>2012-01-25T13:03:25Z</time>
      </trkpt>
      <trkpt lat="44.10146" lon="5.92858">
        <ele>764.8662109</ele>
        <time>2012-01-25T13:03:47Z</time>
      </trkpt>
      <trkpt lat="44.10145" lon="5.92846">
        <ele>766.7888184</ele>
        <time>2012-01-25T13:07:17Z</time>
      </trkpt>
      <trkpt lat="44.1015" lon="5.92847">
        <ele>767.2695313</ele>
        <time>2012-01-25T13:07:22Z</time>
      </trkpt>
      <trkpt lat="44.10158" lon="5.9285">
        <ele>767.2695313</ele>
        <time>2012-01-25T13:07:40Z</time>
      </trkpt>
      <trkpt lat="44.10158" lon="5.92828">
        <ele>768.7114258</ele>
        <time>2012-01-25T13:07:56Z</time>
      </trkpt>
      <trkpt lat="44.10153" lon="5.92803">
        <ele>769.6728516</ele>
        <time>2012-01-25T13:08:12Z</time>
      </trkpt>
      <trkpt lat="44.10152" lon="5.92796">
        <ele>769.6728516</ele>
        <time>2012-01-25T13:08:16Z</time>
      </trkpt>
      <trkpt lat="44.10149" lon="5.92779">
        <ele>770.6340332</ele>
        <time>2012-01-25T13:08:29Z</time>
      </trkpt>
      <trkpt lat="44.10151" lon="5.9276">
        <ele>772.5566406</ele>
        <time>2012-01-25T13:08:45Z</time>
      </trkpt>
      <trkpt lat="44.1015" lon="5.92741">
        <ele>773.9985352</ele>
        <time>2012-01-25T13:08:59Z</time>
      </trkpt>
      <trkpt lat="44.10148" lon="5.92723">
        <ele>775.4404297</ele>
        <time>2012-01-25T13:09:14Z</time>
      </trkpt>
      <trkpt lat="44.10142" lon="5.92706">
        <ele>777.3632813</ele>
        <time>2012-01-25T13:09:26Z</time>
      </trkpt>
      <trkpt lat="44.10138" lon="5.92688">
        <ele>779.2856445</ele>
        <time>2012-01-25T13:09:42Z</time>
      </trkpt>
      <trkpt lat="44.10135" lon="5.9267">
        <ele>781.689209</ele>
        <time>2012-01-25T13:09:58Z</time>
      </trkpt>
      <trkpt lat="44.10131" lon="5.92655">
        <ele>783.1311035</ele>
        <time>2012-01-25T13:10:11Z</time>
      </trkpt>
      <trkpt lat="44.10129" lon="5.92646">
        <ele>784.5732422</ele>
        <time>2012-01-25T13:10:17Z</time>
      </trkpt>
      <trkpt lat="44.10124" lon="5.92633">
        <ele>786.4958496</ele>
        <time>2012-01-25T13:10:31Z</time>
      </trkpt>
      <trkpt lat="44.10118" lon="5.92617">
        <ele>787.9377441</ele>
        <time>2012-01-25T13:10:42Z</time>
      </trkpt>
      <trkpt lat="44.10109" lon="5.92601">
        <ele>789.3796387</ele>
        <time>2012-01-25T13:10:55Z</time>
      </trkpt>
      <trkpt lat="44.10106" lon="5.9259">
        <ele>790.3410645</ele>
        <time>2012-01-25T13:11:07Z</time>
      </trkpt>
      <trkpt lat="44.10101" lon="5.92571">
        <ele>793.2248535</ele>
        <time>2012-01-25T13:11:24Z</time>
      </trkpt>
      <trkpt lat="44.10096" lon="5.92555">
        <ele>794.666748</ele>
        <time>2012-01-25T13:11:39Z</time>
      </trkpt>
      <trkpt lat="44.10091" lon="5.9254">
        <ele>796.5898438</ele>
        <time>2012-01-25T13:11:53Z</time>
      </trkpt>
      <trkpt lat="44.10087" lon="5.92528">
        <ele>798.0317383</ele>
        <time>2012-01-25T13:12:05Z</time>
      </trkpt>
      <trkpt lat="44.10086" lon="5.92524">
        <ele>798.9929199</ele>
        <time>2012-01-25T13:12:08Z</time>
      </trkpt>
      <trkpt lat="44.10081" lon="5.9251">
        <ele>800.4350586</ele>
        <time>2012-01-25T13:12:19Z</time>
      </trkpt>
      <trkpt lat="44.1008" lon="5.92502">
        <ele>801.8769531</ele>
        <time>2012-01-25T13:12:26Z</time>
      </trkpt>
      <trkpt lat="44.10083" lon="5.92496">
        <ele>802.8381348</ele>
        <time>2012-01-25T13:12:32Z</time>
      </trkpt>
      <trkpt lat="44.10093" lon="5.9249">
        <ele>804.7607422</ele>
        <time>2012-01-25T13:12:45Z</time>
      </trkpt>
      <trkpt lat="44.10103" lon="5.92487">
        <ele>806.6833496</ele>
        <time>2012-01-25T13:12:58Z</time>
      </trkpt>
      <trkpt lat="44.10115" lon="5.92483">
        <ele>808.1254883</ele>
        <time>2012-01-25T13:13:11Z</time>
      </trkpt>
      <trkpt lat="44.10124" lon="5.9248">
        <ele>809.5673828</ele>
        <time>2012-01-25T13:13:24Z</time>
      </trkpt>
      <trkpt lat="44.10139" lon="5.92475">
        <ele>811.4899902</ele>
        <time>2012-01-25T13:13:40Z</time>
      </trkpt>
      <trkpt lat="44.10149" lon="5.92471">
        <ele>812.451416</ele>
        <time>2012-01-25T13:13:52Z</time>
      </trkpt>
      <trkpt lat="44.10162" lon="5.92468">
        <ele>813.8933105</ele>
        <time>2012-01-25T13:14:06Z</time>
      </trkpt>
      <trkpt lat="44.10174" lon="5.92464">
        <ele>815.3354492</ele>
        <time>2012-01-25T13:14:20Z</time>
      </trkpt>
      <trkpt lat="44.10185" lon="5.92461">
        <ele>816.7773438</ele>
        <time>2012-01-25T13:14:33Z</time>
      </trkpt>
      <trkpt lat="44.10196" lon="5.92459">
        <ele>818.2192383</ele>
        <time>2012-01-25T13:14:46Z</time>
      </trkpt>
      <trkpt lat="44.10206" lon="5.92458">
        <ele>818.6999512</ele>
        <time>2012-01-25T13:14:58Z</time>
      </trkpt>
      <trkpt lat="44.10219" lon="5.92458">
        <ele>819.661377</ele>
        <time>2012-01-25T13:15:12Z</time>
      </trkpt>
      <trkpt lat="44.1023" lon="5.92457">
        <ele>821.1032715</ele>
        <time>2012-01-25T13:15:26Z</time>
      </trkpt>
      <trkpt lat="44.10245" lon="5.92459">
        <ele>823.0258789</ele>
        <time>2012-01-25T13:15:42Z</time>
      </trkpt>
      <trkpt lat="44.10257" lon="5.92462">
        <ele>823.9870605</ele>
        <time>2012-01-25T13:15:56Z</time>
      </trkpt>
      <trkpt lat="44.1027" lon="5.92461">
        <ele>825.4289551</ele>
        <time>2012-01-25T13:16:11Z</time>
      </trkpt>
      <trkpt lat="44.10284" lon="5.92461">
        <ele>826.3903809</ele>
        <time>2012-01-25T13:16:24Z</time>
      </trkpt>
      <trkpt lat="44.10295" lon="5.92461">
        <ele>827.3518066</ele>
        <time>2012-01-25T13:16:34Z</time>
      </trkpt>
      <trkpt lat="44.10311" lon="5.92463">
        <ele>829.2744141</ele>
        <time>2012-01-25T13:16:49Z</time>
      </trkpt>
      <trkpt lat="44.10322" lon="5.92458">
        <ele>830.7165527</ele>
        <time>2012-01-25T13:17:03Z</time>
      </trkpt>
      <trkpt lat="44.10328" lon="5.92456">
        <ele>831.1972656</ele>
        <time>2012-01-25T13:17:21Z</time>
      </trkpt>
      <trkpt lat="44.10328" lon="5.92448">
        <ele>831.1972656</ele>
        <time>2012-01-25T13:17:37Z</time>
      </trkpt>
      <trkpt lat="44.10322" lon="5.9244">
        <ele>830.7165527</ele>
        <time>2012-01-25T13:18:02Z</time>
      </trkpt>
      <trkpt lat="44.10326" lon="5.9244">
        <ele>830.7165527</ele>
        <time>2012-01-25T13:18:26Z</time>
      </trkpt>
      <trkpt lat="44.10335" lon="5.9244">
        <ele>831.1972656</ele>
        <time>2012-01-25T13:18:38Z</time>
      </trkpt>
      <trkpt lat="44.10336" lon="5.92439">
        <ele>831.1972656</ele>
        <time>2012-01-25T13:19:16Z</time>
      </trkpt>
      <trkpt lat="44.10341" lon="5.92425">
        <ele>831.1972656</ele>
        <time>2012-01-25T13:19:29Z</time>
      </trkpt>
      <trkpt lat="44.10339" lon="5.92422">
        <ele>831.6777344</ele>
        <time>2012-01-25T13:20:46Z</time>
      </trkpt>
      <trkpt lat="44.10335" lon="5.92432">
        <ele>831.6777344</ele>
        <time>2012-01-25T13:21:28Z</time>
      </trkpt>
      <trkpt lat="44.10337" lon="5.92428">
        <ele>831.6777344</ele>
        <time>2012-01-25T13:21:32Z</time>
      </trkpt>
      <trkpt lat="44.10337" lon="5.92428">
        <ele>831.6777344</ele>
        <time>2012-01-25T13:21:48Z</time>
      </trkpt>
      <trkpt lat="44.1033" lon="5.92443">
        <ele>831.6777344</ele>
        <time>2012-01-25T13:22:04Z</time>
      </trkpt>
      <trkpt lat="44.10327" lon="5.9245">
        <ele>831.1972656</ele>
        <time>2012-01-25T13:22:18Z</time>
      </trkpt>
      <trkpt lat="44.10325" lon="5.92453">
        <ele>831.1972656</ele>
        <time>2012-01-25T13:22:38Z</time>
      </trkpt>
      <trkpt lat="44.10322" lon="5.92451">
        <ele>829.755127</ele>
        <time>2012-01-25T13:23:01Z</time>
      </trkpt>
      <trkpt lat="44.10322" lon="5.92451">
        <ele>831.1972656</ele>
        <time>2012-01-25T13:23:03Z</time>
      </trkpt>
      <trkpt lat="44.10321" lon="5.92449">
        <ele>830.7165527</ele>
        <time>2012-01-25T13:23:44Z</time>
      </trkpt>
      <trkpt lat="44.1032" lon="5.92447">
        <ele>829.2744141</ele>
        <time>2012-01-25T13:24:57Z</time>
      </trkpt>
      <trkpt lat="44.10313" lon="5.9244">
        <ele>828.3132324</ele>
        <time>2012-01-25T13:25:02Z</time>
      </trkpt>
      <trkpt lat="44.103" lon="5.92423">
        <ele>826.3903809</ele>
        <time>2012-01-25T13:25:18Z</time>
      </trkpt>
      <trkpt lat="44.10289" lon="5.92412">
        <ele>823.9870605</ele>
        <time>2012-01-25T13:25:32Z</time>
      </trkpt>
      <trkpt lat="44.10279" lon="5.92401">
        <ele>822.0644531</ele>
        <time>2012-01-25T13:25:48Z</time>
      </trkpt>
      <trkpt lat="44.10269" lon="5.92392">
        <ele>820.1418457</ele>
        <time>2012-01-25T13:26:04Z</time>
      </trkpt>
      <trkpt lat="44.10255" lon="5.9238">
        <ele>817.7385254</ele>
        <time>2012-01-25T13:26:20Z</time>
      </trkpt>
      <trkpt lat="44.10245" lon="5.92375">
        <ele>815.8161621</ele>
        <time>2012-01-25T13:26:30Z</time>
      </trkpt>
      <trkpt lat="44.10231" lon="5.92367">
        <ele>813.8933105</ele>
        <time>2012-01-25T13:26:45Z</time>
      </trkpt>
      <trkpt lat="44.10216" lon="5.92356">
        <ele>811.4899902</ele>
        <time>2012-01-25T13:27:01Z</time>
      </trkpt>
      <trkpt lat="44.10203" lon="5.92349">
        <ele>809.5673828</ele>
        <time>2012-01-25T13:27:14Z</time>
      </trkpt>
      <trkpt lat="44.10187" lon="5.92337">
        <ele>808.1254883</ele>
        <time>2012-01-25T13:27:30Z</time>
      </trkpt>
      <trkpt lat="44.10172" lon="5.92328">
        <ele>806.6833496</ele>
        <time>2012-01-25T13:27:46Z</time>
      </trkpt>
      <trkpt lat="44.10158" lon="5.9232">
        <ele>804.7607422</ele>
        <time>2012-01-25T13:28:00Z</time>
      </trkpt>
      <trkpt lat="44.10144" lon="5.9231">
        <ele>803.3188477</ele>
        <time>2012-01-25T13:28:17Z</time>
      </trkpt>
      <trkpt lat="44.10131" lon="5.92301">
        <ele>800.9155273</ele>
        <time>2012-01-25T13:28:31Z</time>
      </trkpt>
      <trkpt lat="44.10124" lon="5.92298">
        <ele>800.4350586</ele>
        <time>2012-01-25T13:28:37Z</time>
      </trkpt>
      <trkpt lat="44.10107" lon="5.92288">
        <ele>798.0317383</ele>
        <time>2012-01-25T13:28:54Z</time>
      </trkpt>
      <trkpt lat="44.10094" lon="5.92283">
        <ele>796.5898438</ele>
        <time>2012-01-25T13:29:07Z</time>
      </trkpt>
      <trkpt lat="44.10086" lon="5.92276">
        <ele>796.1091309</ele>
        <time>2012-01-25T13:29:19Z</time>
      </trkpt>
      <trkpt lat="44.10074" lon="5.92268">
        <ele>794.1862793</ele>
        <time>2012-01-25T13:29:32Z</time>
      </trkpt>
      <trkpt lat="44.10057" lon="5.92259">
        <ele>792.2636719</ele>
        <time>2012-01-25T13:29:48Z</time>
      </trkpt>
      <trkpt lat="44.10047" lon="5.9225">
        <ele>790.8215332</ele>
        <time>2012-01-25T13:29:59Z</time>
      </trkpt>
      <trkpt lat="44.10027" lon="5.92241">
        <ele>789.3796387</ele>
        <time>2012-01-25T13:30:17Z</time>
      </trkpt>
      <trkpt lat="44.1001" lon="5.92234">
        <ele>787.4570313</ele>
        <time>2012-01-25T13:30:32Z</time>
      </trkpt>
      <trkpt lat="44.10001" lon="5.92231">
        <ele>786.9763184</ele>
        <time>2012-01-25T13:30:40Z</time>
      </trkpt>
      <trkpt lat="44.09986" lon="5.92227">
        <ele>785.5344238</ele>
        <time>2012-01-25T13:30:54Z</time>
      </trkpt>
      <trkpt lat="44.09973" lon="5.92221">
        <ele>783.6118164</ele>
        <time>2012-01-25T13:31:07Z</time>
      </trkpt>
      <trkpt lat="44.09956" lon="5.92223">
        <ele>782.1699219</ele>
        <time>2012-01-25T13:31:21Z</time>
      </trkpt>
      <trkpt lat="44.09942" lon="5.92223">
        <ele>780.7280273</ele>
        <time>2012-01-25T13:31:34Z</time>
      </trkpt>
      <trkpt lat="44.09924" lon="5.9222">
        <ele>778.3244629</ele>
        <time>2012-01-25T13:31:49Z</time>
      </trkpt>
      <trkpt lat="44.0991" lon="5.92219">
        <ele>777.84375</ele>
        <time>2012-01-25T13:31:59Z</time>
      </trkpt>
      <trkpt lat="44.09896" lon="5.92222">
        <ele>776.8825684</ele>
        <time>2012-01-25T13:32:13Z</time>
      </trkpt>
      <trkpt lat="44.09879" lon="5.92221">
        <ele>776.4018555</ele>
        <time>2012-01-25T13:32:28Z</time>
      </trkpt>
      <trkpt lat="44.09863" lon="5.92223">
        <ele>776.8825684</ele>
        <time>2012-01-25T13:32:42Z</time>
      </trkpt>
      <trkpt lat="44.09847" lon="5.92224">
        <ele>776.4018555</ele>
        <time>2012-01-25T13:32:58Z</time>
      </trkpt>
      <trkpt lat="44.09833" lon="5.92226">
        <ele>775.9211426</ele>
        <time>2012-01-25T13:33:11Z</time>
      </trkpt>
      <trkpt lat="44.09827" lon="5.92228">
        <ele>775.4404297</ele>
        <time>2012-01-25T13:33:18Z</time>
      </trkpt>
      <trkpt lat="44.09812" lon="5.92239">
        <ele>773.9985352</ele>
        <time>2012-01-25T13:33:33Z</time>
      </trkpt>
      <trkpt lat="44.09802" lon="5.92246">
        <ele>773.5180664</ele>
        <time>2012-01-25T13:33:42Z</time>
      </trkpt>
      <trkpt lat="44.09794" lon="5.92251">
        <ele>773.0373535</ele>
        <time>2012-01-25T13:33:50Z</time>
      </trkpt>
      <trkpt lat="44.09789" lon="5.92253">
        <ele>773.0373535</ele>
        <time>2012-01-25T13:33:54Z</time>
      </trkpt>
      <trkpt lat="44.09773" lon="5.92264">
        <ele>772.5566406</ele>
        <time>2012-01-25T13:34:09Z</time>
      </trkpt>
      <trkpt lat="44.09764" lon="5.92269">
        <ele>772.0759277</ele>
        <time>2012-01-25T13:34:21Z</time>
      </trkpt>
      <trkpt lat="44.09749" lon="5.92278">
        <ele>772.0759277</ele>
        <time>2012-01-25T13:34:33Z</time>
      </trkpt>
      <trkpt lat="44.09734" lon="5.92286">
        <ele>772.5566406</ele>
        <time>2012-01-25T13:34:46Z</time>
      </trkpt>
      <trkpt lat="44.09718" lon="5.92293">
        <ele>771.5952148</ele>
        <time>2012-01-25T13:35:01Z</time>
      </trkpt>
      <trkpt lat="44.0971" lon="5.92296">
        <ele>771.1147461</ele>
        <time>2012-01-25T13:35:10Z</time>
      </trkpt>
      <trkpt lat="44.097" lon="5.92299">
        <ele>771.1147461</ele>
        <time>2012-01-25T13:35:19Z</time>
      </trkpt>
      <trkpt lat="44.09685" lon="5.92302">
        <ele>769.6728516</ele>
        <time>2012-01-25T13:35:35Z</time>
      </trkpt>
      <trkpt lat="44.09673" lon="5.92297">
        <ele>769.1921387</ele>
        <time>2012-01-25T13:35:49Z</time>
      </trkpt>
      <trkpt lat="44.09661" lon="5.92299">
        <ele>766.7888184</ele>
        <time>2012-01-25T13:36:11Z</time>
      </trkpt>
      <trkpt lat="44.09657" lon="5.92303">
        <ele>765.8276367</ele>
        <time>2012-01-25T13:36:35Z</time>
      </trkpt>
      <trkpt lat="44.09658" lon="5.92299">
        <ele>765.3469238</ele>
        <time>2012-01-25T13:37:36Z</time>
      </trkpt>
      <trkpt lat="44.09653" lon="5.92301">
        <ele>764.385498</ele>
        <time>2012-01-25T13:38:04Z</time>
      </trkpt>
      <trkpt lat="44.09653" lon="5.92304">
        <ele>763.904541</ele>
        <time>2012-01-25T13:38:20Z</time>
      </trkpt>
      <trkpt lat="44.09655" lon="5.92316">
        <ele>762.9433594</ele>
        <time>2012-01-25T13:38:31Z</time>
      </trkpt>
      <trkpt lat="44.09653" lon="5.9233">
        <ele>761.9821777</ele>
        <time>2012-01-25T13:38:46Z</time>
      </trkpt>
      <trkpt lat="44.09654" lon="5.92331">
        <ele>761.9821777</ele>
        <time>2012-01-25T13:38:47Z</time>
      </trkpt>
      <trkpt lat="44.09653" lon="5.92345">
        <ele>760.5400391</ele>
        <time>2012-01-25T13:39:00Z</time>
      </trkpt>
      <trkpt lat="44.09656" lon="5.92355">
        <ele>760.0593262</ele>
        <time>2012-01-25T13:39:13Z</time>
      </trkpt>
      <trkpt lat="44.09655" lon="5.92354">
        <ele>760.0593262</ele>
        <time>2012-01-25T13:39:16Z</time>
      </trkpt>
      <trkpt lat="44.09639" lon="5.92353">
        <ele>757.65625</ele>
        <time>2012-01-25T13:39:31Z</time>
      </trkpt>
      <trkpt lat="44.09632" lon="5.9235">
        <ele>757.65625</ele>
        <time>2012-01-25T13:39:50Z</time>
      </trkpt>
      <trkpt lat="44.09633" lon="5.92345">
        <ele>758.1369629</ele>
        <time>2012-01-25T13:41:41Z</time>
      </trkpt>
      <trkpt lat="44.09629" lon="5.92334">
        <ele>758.1369629</ele>
        <time>2012-01-25T13:41:55Z</time>
      </trkpt>
      <trkpt lat="44.09637" lon="5.9234">
        <ele>758.6174316</ele>
        <time>2012-01-25T13:42:15Z</time>
      </trkpt>
      <trkpt lat="44.09641" lon="5.9235">
        <ele>758.1369629</ele>
        <time>2012-01-25T13:42:28Z</time>
      </trkpt>
      <trkpt lat="44.09641" lon="5.92355">
        <ele>758.1369629</ele>
        <time>2012-01-25T13:42:44Z</time>
      </trkpt>
      <trkpt lat="44.09641" lon="5.92367">
        <ele>756.2141113</ele>
        <time>2012-01-25T13:46:51Z</time>
      </trkpt>
      <trkpt lat="44.09643" lon="5.92367">
        <ele>756.6948242</ele>
        <time>2012-01-25T13:46:59Z</time>
      </trkpt>
      <trkpt lat="44.09638" lon="5.92398">
        <ele>755.2529297</ele>
        <time>2012-01-25T13:47:16Z</time>
      </trkpt>
      <trkpt lat="44.09636" lon="5.92419">
        <ele>753.3303223</ele>
        <time>2012-01-25T13:47:31Z</time>
      </trkpt>
      <trkpt lat="44.09635" lon="5.92429">
        <ele>752.3688965</ele>
        <time>2012-01-25T13:47:39Z</time>
      </trkpt>
      <trkpt lat="44.09627" lon="5.92446">
        <ele>749.4851074</ele>
        <time>2012-01-25T13:47:55Z</time>
      </trkpt>
      <trkpt lat="44.09613" lon="5.92457">
        <ele>747.5622559</ele>
        <time>2012-01-25T13:48:11Z</time>
      </trkpt>
      <trkpt lat="44.0961" lon="5.92457">
        <ele>747.081543</ele>
        <time>2012-01-25T13:48:14Z</time>
      </trkpt>
      <trkpt lat="44.09593" lon="5.92455">
        <ele>744.6782227</ele>
        <time>2012-01-25T13:48:30Z</time>
      </trkpt>
      <trkpt lat="44.09582" lon="5.92462">
        <ele>742.7558594</ele>
        <time>2012-01-25T13:48:43Z</time>
      </trkpt>
      <trkpt lat="44.09575" lon="5.9248">
        <ele>740.3525391</ele>
        <time>2012-01-25T13:48:57Z</time>
      </trkpt>
      <trkpt lat="44.09571" lon="5.92488">
        <ele>739.3911133</ele>
        <time>2012-01-25T13:49:03Z</time>
      </trkpt>
      <trkpt lat="44.09566" lon="5.92505">
        <ele>736.987793</ele>
        <time>2012-01-25T13:49:17Z</time>
      </trkpt>
      <trkpt lat="44.09559" lon="5.92527">
        <ele>734.1040039</ele>
        <time>2012-01-25T13:49:34Z</time>
      </trkpt>
      <trkpt lat="44.09557" lon="5.92547">
        <ele>731.2199707</ele>
        <time>2012-01-25T13:49:48Z</time>
      </trkpt>
      <trkpt lat="44.09554" lon="5.92565">
        <ele>728.8166504</ele>
        <time>2012-01-25T13:50:03Z</time>
      </trkpt>
      <trkpt lat="44.09549" lon="5.92583">
        <ele>726.894043</ele>
        <time>2012-01-25T13:50:17Z</time>
      </trkpt>
      <trkpt lat="44.09546" lon="5.92588">
        <ele>725.9326172</ele>
        <time>2012-01-25T13:50:21Z</time>
      </trkpt>
      <trkpt lat="44.09541" lon="5.92597">
        <ele>725.4519043</ele>
        <time>2012-01-25T13:50:28Z</time>
      </trkpt>
      <trkpt lat="44.09538" lon="5.92615">
        <ele>723.529541</ele>
        <time>2012-01-25T13:50:44Z</time>
      </trkpt>
      <trkpt lat="44.09554" lon="5.92635">
        <ele>723.529541</ele>
        <time>2012-01-25T13:52:01Z</time>
      </trkpt>
      <trkpt lat="44.09564" lon="5.9265">
        <ele>722.0874023</ele>
        <time>2012-01-25T13:52:15Z</time>
      </trkpt>
      <trkpt lat="44.09563" lon="5.92652">
        <ele>722.5681152</ele>
        <time>2012-01-25T13:52:17Z</time>
      </trkpt>
      <trkpt lat="44.09567" lon="5.92674">
        <ele>722.0874023</ele>
        <time>2012-01-25T13:52:35Z</time>
      </trkpt>
      <trkpt lat="44.09572" lon="5.92691">
        <ele>722.5681152</ele>
        <time>2012-01-25T13:52:50Z</time>
      </trkpt>
      <trkpt lat="44.0958" lon="5.92707">
        <ele>722.5681152</ele>
        <time>2012-01-25T13:53:04Z</time>
      </trkpt>
      <trkpt lat="44.09592" lon="5.92722">
        <ele>722.0874023</ele>
        <time>2012-01-25T13:53:17Z</time>
      </trkpt>
      <trkpt lat="44.09598" lon="5.92739">
        <ele>723.0488281</ele>
        <time>2012-01-25T13:53:32Z</time>
      </trkpt>
      <trkpt lat="44.09605" lon="5.92763">
        <ele>723.529541</ele>
        <time>2012-01-25T13:53:49Z</time>
      </trkpt>
      <trkpt lat="44.09611" lon="5.92783">
        <ele>724.0100098</ele>
        <time>2012-01-25T13:54:04Z</time>
      </trkpt>
      <trkpt lat="44.09612" lon="5.92804">
        <ele>723.529541</ele>
        <time>2012-01-25T13:54:16Z</time>
      </trkpt>
      <trkpt lat="44.09608" lon="5.92824">
        <ele>722.0874023</ele>
        <time>2012-01-25T13:54:31Z</time>
      </trkpt>
      <trkpt lat="44.09606" lon="5.92845">
        <ele>720.6455078</ele>
        <time>2012-01-25T13:54:46Z</time>
      </trkpt>
      <trkpt lat="44.09607" lon="5.92868">
        <ele>719.2036133</ele>
        <time>2012-01-25T13:55:04Z</time>
      </trkpt>
      <trkpt lat="44.09605" lon="5.92888">
        <ele>718.2421875</ele>
        <time>2012-01-25T13:55:19Z</time>
      </trkpt>
      <trkpt lat="44.09608" lon="5.92899">
        <ele>717.7614746</ele>
        <time>2012-01-25T13:55:25Z</time>
      </trkpt>
      <trkpt lat="44.09611" lon="5.92921">
        <ele>717.2810059</ele>
        <time>2012-01-25T13:55:37Z</time>
      </trkpt>
      <trkpt lat="44.0961" lon="5.92947">
        <ele>716.3195801</ele>
        <time>2012-01-25T13:55:54Z</time>
      </trkpt>
      <trkpt lat="44.0961" lon="5.92948">
        <ele>716.3195801</ele>
        <time>2012-01-25T13:55:55Z</time>
      </trkpt>
      <trkpt lat="44.09611" lon="5.92962">
        <ele>715.8388672</ele>
        <time>2012-01-25T13:56:05Z</time>
      </trkpt>
      <trkpt lat="44.09613" lon="5.92987">
        <ele>714.8774414</ele>
        <time>2012-01-25T13:56:22Z</time>
      </trkpt>
      <trkpt lat="44.09615" lon="5.93009">
        <ele>713.9160156</ele>
        <time>2012-01-25T13:56:38Z</time>
      </trkpt>
      <trkpt lat="44.09616" lon="5.93031">
        <ele>713.4355469</ele>
        <time>2012-01-25T13:56:53Z</time>
      </trkpt>
      <trkpt lat="44.09617" lon="5.93051">
        <ele>713.4355469</ele>
        <time>2012-01-25T13:57:08Z</time>
      </trkpt>
      <trkpt lat="44.09619" lon="5.9307">
        <ele>713.4355469</ele>
        <time>2012-01-25T13:57:22Z</time>
      </trkpt>
      <trkpt lat="44.09617" lon="5.93077">
        <ele>713.4355469</ele>
        <time>2012-01-25T13:57:39Z</time>
      </trkpt>
      <trkpt lat="44.09617" lon="5.93093">
        <ele>712.954834</ele>
        <time>2012-01-25T13:57:55Z</time>
      </trkpt>
      <trkpt lat="44.09611" lon="5.93109">
        <ele>712.954834</ele>
        <time>2012-01-25T13:58:05Z</time>
      </trkpt>
      <trkpt lat="44.09607" lon="5.93127">
        <ele>711.9936523</ele>
        <time>2012-01-25T13:58:20Z</time>
      </trkpt>
      <trkpt lat="44.09607" lon="5.93132">
        <ele>711.5129395</ele>
        <time>2012-01-25T13:58:29Z</time>
      </trkpt>
      <trkpt lat="44.09608" lon="5.93144">
        <ele>710.5515137</ele>
        <time>2012-01-25T13:58:36Z</time>
      </trkpt>
      <trkpt lat="44.09613" lon="5.93166">
        <ele>710.0708008</ele>
        <time>2012-01-25T13:58:50Z</time>
      </trkpt>
      <trkpt lat="44.09615" lon="5.93189">
        <ele>707.6677246</ele>
        <time>2012-01-25T13:59:05Z</time>
      </trkpt>
      <trkpt lat="44.09616" lon="5.93197">
        <ele>707.1870117</ele>
        <time>2012-01-25T13:59:10Z</time>
      </trkpt>
      <trkpt lat="44.09616" lon="5.93206">
        <ele>706.2255859</ele>
        <time>2012-01-25T13:59:16Z</time>
      </trkpt>
      <trkpt lat="44.09616" lon="5.93214">
        <ele>706.2255859</ele>
        <time>2012-01-25T13:59:21Z</time>
      </trkpt>
      <trkpt lat="44.09615" lon="5.93239">
        <ele>706.2255859</ele>
        <time>2012-01-25T13:59:37Z</time>
      </trkpt>
      <trkpt lat="44.09615" lon="5.9325">
        <ele>706.7062988</ele>
        <time>2012-01-25T13:59:44Z</time>
      </trkpt>
      <trkpt lat="44.09614" lon="5.93256">
        <ele>707.6677246</ele>
        <time>2012-01-25T13:59:48Z</time>
      </trkpt>
      <trkpt lat="44.09609" lon="5.93265">
        <ele>707.1870117</ele>
        <time>2012-01-25T13:59:55Z</time>
      </trkpt>
      <trkpt lat="44.09596" lon="5.93266">
        <ele>706.7062988</ele>
        <time>2012-01-25T14:00:05Z</time>
      </trkpt>
      <trkpt lat="44.09593" lon="5.93263">
        <ele>706.7062988</ele>
        <time>2012-01-25T14:00:08Z</time>
      </trkpt>
      <trkpt lat="44.09575" lon="5.93254">
        <ele>706.2255859</ele>
        <time>2012-01-25T14:00:23Z</time>
      </trkpt>
      <trkpt lat="44.09561" lon="5.93253">
        <ele>705.7451172</ele>
        <time>2012-01-25T14:00:38Z</time>
      </trkpt>
      <trkpt lat="44.09545" lon="5.93257">
        <ele>705.7451172</ele>
        <time>2012-01-25T14:00:53Z</time>
      </trkpt>
      <trkpt lat="44.0954" lon="5.9326">
        <ele>705.2644043</ele>
        <time>2012-01-25T14:01:16Z</time>
      </trkpt>
      <trkpt lat="44.09536" lon="5.93261">
        <ele>705.2644043</ele>
        <time>2012-01-25T14:01:22Z</time>
      </trkpt>
      <trkpt lat="44.09521" lon="5.93266">
        <ele>704.3032227</ele>
        <time>2012-01-25T14:01:38Z</time>
      </trkpt>
      <trkpt lat="44.09507" lon="5.93271">
        <ele>702.861084</ele>
        <time>2012-01-25T14:01:52Z</time>
      </trkpt>
      <trkpt lat="44.09491" lon="5.93276">
        <ele>701.8999023</ele>
        <time>2012-01-25T14:02:07Z</time>
      </trkpt>
      <trkpt lat="44.09476" lon="5.93279">
        <ele>700.9384766</ele>
        <time>2012-01-25T14:02:21Z</time>
      </trkpt>
      <trkpt lat="44.09461" lon="5.93277">
        <ele>699.4963379</ele>
        <time>2012-01-25T14:02:34Z</time>
      </trkpt>
      <trkpt lat="44.09459" lon="5.93278">
        <ele>699.4963379</ele>
        <time>2012-01-25T14:02:36Z</time>
      </trkpt>
      <trkpt lat="44.09457" lon="5.9328">
        <ele>699.015625</ele>
        <time>2012-01-25T14:02:38Z</time>
      </trkpt>
      <trkpt lat="44.09445" lon="5.9328">
        <ele>698.5349121</ele>
        <time>2012-01-25T14:02:49Z</time>
      </trkpt>
      <trkpt lat="44.09431" lon="5.93289">
        <ele>695.651123</ele>
        <time>2012-01-25T14:03:04Z</time>
      </trkpt>
      <trkpt lat="44.09415" lon="5.93304">
        <ele>694.6896973</ele>
        <time>2012-01-25T14:03:18Z</time>
      </trkpt>
      <trkpt lat="44.09415" lon="5.93304">
        <ele>694.6896973</ele>
        <time>2012-01-25T14:03:19Z</time>
      </trkpt>
      <trkpt lat="44.09408" lon="5.93303">
        <ele>694.6896973</ele>
        <time>2012-01-25T14:03:24Z</time>
      </trkpt>
      <trkpt lat="44.09394" lon="5.93299">
        <ele>694.2092285</ele>
        <time>2012-01-25T14:03:37Z</time>
      </trkpt>
      <trkpt lat="44.09378" lon="5.93292">
        <ele>693.7285156</ele>
        <time>2012-01-25T14:03:53Z</time>
      </trkpt>
      <trkpt lat="44.09371" lon="5.93294">
        <ele>693.7285156</ele>
        <time>2012-01-25T14:03:58Z</time>
      </trkpt>
      <trkpt lat="44.09365" lon="5.93298">
        <ele>692.767334</ele>
        <time>2012-01-25T14:04:04Z</time>
      </trkpt>
      <trkpt lat="44.09353" lon="5.93308">
        <ele>690.8444824</ele>
        <time>2012-01-25T14:04:18Z</time>
      </trkpt>
      <trkpt lat="44.09346" lon="5.93314">
        <ele>689.4025879</ele>
        <time>2012-01-25T14:04:28Z</time>
      </trkpt>
      <trkpt lat="44.09335" lon="5.93331">
        <ele>686.9992676</ele>
        <time>2012-01-25T14:04:44Z</time>
      </trkpt>
      <trkpt lat="44.09322" lon="5.93343">
        <ele>684.5961914</ele>
        <time>2012-01-25T14:05:00Z</time>
      </trkpt>
      <trkpt lat="44.09312" lon="5.9336">
        <ele>682.6733398</ele>
        <time>2012-01-25T14:05:15Z</time>
      </trkpt>
      <trkpt lat="44.09296" lon="5.93376">
        <ele>680.2700195</ele>
        <time>2012-01-25T14:05:30Z</time>
      </trkpt>
      <trkpt lat="44.09282" lon="5.93385">
        <ele>678.3474121</ele>
        <time>2012-01-25T14:05:45Z</time>
      </trkpt>
      <trkpt lat="44.09278" lon="5.9339">
        <ele>677.3862305</ele>
        <time>2012-01-25T14:05:51Z</time>
      </trkpt>
      <trkpt lat="44.09257" lon="5.93397">
        <ele>676.4248047</ele>
        <time>2012-01-25T14:06:05Z</time>
      </trkpt>
      <trkpt lat="44.09251" lon="5.93403">
        <ele>674.9829102</ele>
        <time>2012-01-25T14:06:12Z</time>
      </trkpt>
      <trkpt lat="44.09247" lon="5.93405">
        <ele>674.5021973</ele>
        <time>2012-01-25T14:06:17Z</time>
      </trkpt>
      <trkpt lat="44.09234" lon="5.93408">
        <ele>671.6181641</ele>
        <time>2012-01-25T14:06:32Z</time>
      </trkpt>
      <trkpt lat="44.09227" lon="5.93412">
        <ele>670.1762695</ele>
        <time>2012-01-25T14:06:41Z</time>
      </trkpt>
      <trkpt lat="44.09225" lon="5.93417">
        <ele>669.6958008</ele>
        <time>2012-01-25T14:06:46Z</time>
      </trkpt>
      <trkpt lat="44.09227" lon="5.93434">
        <ele>669.6958008</ele>
        <time>2012-01-25T14:06:59Z</time>
      </trkpt>
      <trkpt lat="44.09227" lon="5.93437">
        <ele>669.6958008</ele>
        <time>2012-01-25T14:07:18Z</time>
      </trkpt>
      <trkpt lat="44.09233" lon="5.93456">
        <ele>669.6958008</ele>
        <time>2012-01-25T14:07:30Z</time>
      </trkpt>
      <trkpt lat="44.09235" lon="5.93463">
        <ele>669.2150879</ele>
        <time>2012-01-25T14:07:34Z</time>
      </trkpt>
      <trkpt lat="44.0924" lon="5.93489">
        <ele>668.734375</ele>
        <time>2012-01-25T14:07:49Z</time>
      </trkpt>
      <trkpt lat="44.0924" lon="5.93491">
        <ele>669.2150879</ele>
        <time>2012-01-25T14:07:50Z</time>
      </trkpt>
      <trkpt lat="44.09241" lon="5.935">
        <ele>668.734375</ele>
        <time>2012-01-25T14:07:56Z</time>
      </trkpt>
      <trkpt lat="44.09245" lon="5.93518">
        <ele>667.7727051</ele>
        <time>2012-01-25T14:08:11Z</time>
      </trkpt>
      <trkpt lat="44.09248" lon="5.93522">
        <ele>667.2922363</ele>
        <time>2012-01-25T14:08:16Z</time>
      </trkpt>
      <trkpt lat="44.09259" lon="5.93538">
        <ele>666.3308105</ele>
        <time>2012-01-25T14:08:32Z</time>
      </trkpt>
      <trkpt lat="44.09266" lon="5.93545">
        <ele>665.3696289</ele>
        <time>2012-01-25T14:08:41Z</time>
      </trkpt>
      <trkpt lat="44.09275" lon="5.93566">
        <ele>663.9274902</ele>
        <time>2012-01-25T14:08:56Z</time>
      </trkpt>
      <trkpt lat="44.09277" lon="5.93569">
        <ele>663.9274902</ele>
        <time>2012-01-25T14:08:59Z</time>
      </trkpt>
      <trkpt lat="44.0929" lon="5.93577">
        <ele>663.4470215</ele>
        <time>2012-01-25T14:09:14Z</time>
      </trkpt>
      <trkpt lat="44.09303" lon="5.93591">
        <ele>662.005127</ele>
        <time>2012-01-25T14:09:29Z</time>
      </trkpt>
      <trkpt lat="44.09305" lon="5.936">
        <ele>662.005127</ele>
        <time>2012-01-25T14:09:36Z</time>
      </trkpt>
      <trkpt lat="44.09308" lon="5.93607">
        <ele>661.5244141</ele>
        <time>2012-01-25T14:09:42Z</time>
      </trkpt>
      <trkpt lat="44.09314" lon="5.93618">
        <ele>660.5629883</ele>
        <time>2012-01-25T14:09:52Z</time>
      </trkpt>
      <trkpt lat="44.09315" lon="5.93629">
        <ele>660.0822754</ele>
        <time>2012-01-25T14:09:59Z</time>
      </trkpt>
      <trkpt lat="44.09317" lon="5.93649">
        <ele>659.1210938</ele>
        <time>2012-01-25T14:10:15Z</time>
      </trkpt>
      <trkpt lat="44.09317" lon="5.93664">
        <ele>658.6403809</ele>
        <time>2012-01-25T14:10:31Z</time>
      </trkpt>
      <trkpt lat="44.09316" lon="5.93679">
        <ele>658.6403809</ele>
        <time>2012-01-25T14:10:47Z</time>
      </trkpt>
      <trkpt lat="44.09315" lon="5.93705">
        <ele>657.6791992</ele>
        <time>2012-01-25T14:11:04Z</time>
      </trkpt>
      <trkpt lat="44.09317" lon="5.93724">
        <ele>656.7177734</ele>
        <time>2012-01-25T14:11:18Z</time>
      </trkpt>
      <trkpt lat="44.09314" lon="5.93742">
        <ele>656.2370605</ele>
        <time>2012-01-25T14:11:33Z</time>
      </trkpt>
      <trkpt lat="44.09312" lon="5.93746">
        <ele>655.7565918</ele>
        <time>2012-01-25T14:11:35Z</time>
      </trkpt>
      <trkpt lat="44.09314" lon="5.93765">
        <ele>654.795166</ele>
        <time>2012-01-25T14:11:50Z</time>
      </trkpt>
      <trkpt lat="44.09318" lon="5.9377">
        <ele>653.8339844</ele>
        <time>2012-01-25T14:11:56Z</time>
      </trkpt>
      <trkpt lat="44.09326" lon="5.93787">
        <ele>651.9111328</ele>
        <time>2012-01-25T14:12:10Z</time>
      </trkpt>
      <trkpt lat="44.09329" lon="5.93792">
        <ele>651.9111328</ele>
        <time>2012-01-25T14:12:14Z</time>
      </trkpt>
      <trkpt lat="44.09328" lon="5.93811">
        <ele>650.4692383</ele>
        <time>2012-01-25T14:12:28Z</time>
      </trkpt>
      <trkpt lat="44.09329" lon="5.93835">
        <ele>649.9885254</ele>
        <time>2012-01-25T14:12:42Z</time>
      </trkpt>
      <trkpt lat="44.0933" lon="5.9384">
        <ele>649.5078125</ele>
        <time>2012-01-25T14:12:45Z</time>
      </trkpt>
      <trkpt lat="44.0933" lon="5.93849">
        <ele>649.5078125</ele>
        <time>2012-01-25T14:12:51Z</time>
      </trkpt>
      <trkpt lat="44.0933" lon="5.93854">
        <ele>649.5078125</ele>
        <time>2012-01-25T14:12:55Z</time>
      </trkpt>
      <trkpt lat="44.09329" lon="5.93873">
        <ele>648.065918</ele>
        <time>2012-01-25T14:13:07Z</time>
      </trkpt>
      <trkpt lat="44.0933" lon="5.93881">
        <ele>647.5852051</ele>
        <time>2012-01-25T14:13:13Z</time>
      </trkpt>
      <trkpt lat="44.09329" lon="5.93884">
        <ele>647.1044922</ele>
        <time>2012-01-25T14:13:15Z</time>
      </trkpt>
      <trkpt lat="44.09328" lon="5.93902">
        <ele>645.6625977</ele>
        <time>2012-01-25T14:13:29Z</time>
      </trkpt>
      <trkpt lat="44.09323" lon="5.93918">
        <ele>644.2207031</ele>
        <time>2012-01-25T14:13:43Z</time>
      </trkpt>
      <trkpt lat="44.09322" lon="5.93921">
        <ele>643.7399902</ele>
        <time>2012-01-25T14:13:45Z</time>
      </trkpt>
      <trkpt lat="44.09321" lon="5.93923">
        <ele>643.2592773</ele>
        <time>2012-01-25T14:13:47Z</time>
      </trkpt>
      <trkpt lat="44.0932" lon="5.93929">
        <ele>643.2592773</ele>
        <time>2012-01-25T14:13:50Z</time>
      </trkpt>
      <trkpt lat="44.09314" lon="5.93947">
        <ele>641.8173828</ele>
        <time>2012-01-25T14:14:05Z</time>
      </trkpt>
      <trkpt lat="44.09309" lon="5.93965">
        <ele>639.8947754</ele>
        <time>2012-01-25T14:14:18Z</time>
      </trkpt>
      <trkpt lat="44.093" lon="5.9398">
        <ele>638.9335938</ele>
        <time>2012-01-25T14:14:33Z</time>
      </trkpt>
      <trkpt lat="44.09291" lon="5.93993">
        <ele>637.4914551</ele>
        <time>2012-01-25T14:14:46Z</time>
      </trkpt>
      <trkpt lat="44.0929" lon="5.93996">
        <ele>637.4914551</ele>
        <time>2012-01-25T14:14:49Z</time>
      </trkpt>
      <trkpt lat="44.09278" lon="5.94012">
        <ele>636.0495605</ele>
        <time>2012-01-25T14:15:05Z</time>
      </trkpt>
      <trkpt lat="44.09276" lon="5.94013">
        <ele>635.5686035</ele>
        <time>2012-01-25T14:15:07Z</time>
      </trkpt>
      <trkpt lat="44.09263" lon="5.94026">
        <ele>633.6459961</ele>
        <time>2012-01-25T14:15:23Z</time>
      </trkpt>
      <trkpt lat="44.09258" lon="5.9403">
        <ele>633.1652832</ele>
        <time>2012-01-25T14:15:39Z</time>
      </trkpt>
      <trkpt lat="44.09254" lon="5.94035">
        <ele>632.6848145</ele>
        <time>2012-01-25T14:16:06Z</time>
      </trkpt>
      <trkpt lat="44.09248" lon="5.94057">
        <ele>630.2814941</ele>
        <time>2012-01-25T14:16:22Z</time>
      </trkpt>
      <trkpt lat="44.09244" lon="5.94076">
        <ele>628.3588867</ele>
        <time>2012-01-25T14:16:37Z</time>
      </trkpt>
      <trkpt lat="44.09244" lon="5.94096">
        <ele>625.9555664</ele>
        <time>2012-01-25T14:16:52Z</time>
      </trkpt>
      <trkpt lat="44.09247" lon="5.94116">
        <ele>623.5524902</ele>
        <time>2012-01-25T14:17:07Z</time>
      </trkpt>
      <trkpt lat="44.09249" lon="5.94138">
        <ele>620.668457</ele>
        <time>2012-01-25T14:17:24Z</time>
      </trkpt>
      <trkpt lat="44.09255" lon="5.94156">
        <ele>618.7456055</ele>
        <time>2012-01-25T14:17:38Z</time>
      </trkpt>
      <trkpt lat="44.09262" lon="5.94175">
        <ele>617.3037109</ele>
        <time>2012-01-25T14:17:53Z</time>
      </trkpt>
      <trkpt lat="44.09278" lon="5.94192">
        <ele>616.3422852</ele>
        <time>2012-01-25T14:18:10Z</time>
      </trkpt>
      <trkpt lat="44.09287" lon="5.94208">
        <ele>615.8618164</ele>
        <time>2012-01-25T14:18:21Z</time>
      </trkpt>
      <trkpt lat="44.09289" lon="5.94216">
        <ele>615.3811035</ele>
        <time>2012-01-25T14:18:25Z</time>
      </trkpt>
      <trkpt lat="44.09285" lon="5.94244">
        <ele>614.9003906</ele>
        <time>2012-01-25T14:18:42Z</time>
      </trkpt>
      <trkpt lat="44.09288" lon="5.94267">
        <ele>614.4196777</ele>
        <time>2012-01-25T14:18:56Z</time>
      </trkpt>
      <trkpt lat="44.09287" lon="5.94291">
        <ele>614.4196777</ele>
        <time>2012-01-25T14:19:12Z</time>
      </trkpt>
      <trkpt lat="44.09279" lon="5.94308">
        <ele>614.9003906</ele>
        <time>2012-01-25T14:19:24Z</time>
      </trkpt>
      <trkpt lat="44.09275" lon="5.94318">
        <ele>615.8618164</ele>
        <time>2012-01-25T14:19:31Z</time>
      </trkpt>
      <trkpt lat="44.09277" lon="5.94344">
        <ele>616.3422852</ele>
        <time>2012-01-25T14:19:46Z</time>
      </trkpt>
      <trkpt lat="44.09283" lon="5.94369">
        <ele>614.9003906</ele>
        <time>2012-01-25T14:20:02Z</time>
      </trkpt>
      <trkpt lat="44.09284" lon="5.94374">
        <ele>614.4196777</ele>
        <time>2012-01-25T14:20:05Z</time>
      </trkpt>
      <trkpt lat="44.09282" lon="5.94398">
        <ele>613.9389648</ele>
        <time>2012-01-25T14:20:20Z</time>
      </trkpt>
      <trkpt lat="44.09281" lon="5.9441">
        <ele>613.4584961</ele>
        <time>2012-01-25T14:20:27Z</time>
      </trkpt>
      <trkpt lat="44.09279" lon="5.94424">
        <ele>613.9389648</ele>
        <time>2012-01-25T14:20:35Z</time>
      </trkpt>
      <trkpt lat="44.09277" lon="5.9443">
        <ele>613.4584961</ele>
        <time>2012-01-25T14:20:39Z</time>
      </trkpt>
      <trkpt lat="44.09273" lon="5.94442">
        <ele>612.9777832</ele>
        <time>2012-01-25T14:20:47Z</time>
      </trkpt>
      <trkpt lat="44.09267" lon="5.94456">
        <ele>612.0166016</ele>
        <time>2012-01-25T14:20:57Z</time>
      </trkpt>
      <trkpt lat="44.09262" lon="5.94467">
        <ele>611.5358887</ele>
        <time>2012-01-25T14:21:05Z</time>
      </trkpt>
      <trkpt lat="44.0926" lon="5.94474">
        <ele>611.0551758</ele>
        <time>2012-01-25T14:21:10Z</time>
      </trkpt>
      <trkpt lat="44.09253" lon="5.94496">
        <ele>610.09375</ele>
        <time>2012-01-25T14:21:25Z</time>
      </trkpt>
      <trkpt lat="44.09254" lon="5.94519">
        <ele>608.6518555</ele>
        <time>2012-01-25T14:21:39Z</time>
      </trkpt>
      <trkpt lat="44.09258" lon="5.94541">
        <ele>607.2099609</ele>
        <time>2012-01-25T14:21:54Z</time>
      </trkpt>
      <trkpt lat="44.0926" lon="5.94559">
        <ele>605.2873535</ele>
        <time>2012-01-25T14:22:07Z</time>
      </trkpt>
      <trkpt lat="44.0926" lon="5.94565">
        <ele>604.3261719</ele>
        <time>2012-01-25T14:22:12Z</time>
      </trkpt>
      <trkpt lat="44.09259" lon="5.9458">
        <ele>603.364502</ele>
        <time>2012-01-25T14:22:25Z</time>
      </trkpt>
      <trkpt lat="44.09257" lon="5.94581">
        <ele>603.364502</ele>
        <time>2012-01-25T14:22:57Z</time>
      </trkpt>
      <trkpt lat="44.09261" lon="5.94588">
        <ele>602.4030762</ele>
        <time>2012-01-25T14:23:23Z</time>
      </trkpt>
      <trkpt lat="44.09262" lon="5.94602">
        <ele>600.9611816</ele>
        <time>2012-01-25T14:23:33Z</time>
      </trkpt>
      <trkpt lat="44.09261" lon="5.9462">
        <ele>598.5578613</ele>
        <time>2012-01-25T14:23:47Z</time>
      </trkpt>
      <trkpt lat="44.09274" lon="5.94639">
        <ele>595.6740723</ele>
        <time>2012-01-25T14:24:03Z</time>
      </trkpt>
      <trkpt lat="44.09279" lon="5.94648">
        <ele>593.270752</ele>
        <time>2012-01-25T14:24:17Z</time>
      </trkpt>
      <trkpt lat="44.09289" lon="5.94665">
        <ele>590.3869629</ele>
        <time>2012-01-25T14:24:33Z</time>
      </trkpt>
      <trkpt lat="44.09296" lon="5.94685">
        <ele>587.9833984</ele>
        <time>2012-01-25T14:24:48Z</time>
      </trkpt>
      <trkpt lat="44.09296" lon="5.94686">
        <ele>587.9833984</ele>
        <time>2012-01-25T14:24:49Z</time>
      </trkpt>
      <trkpt lat="44.09302" lon="5.94699">
        <ele>587.0219727</ele>
        <time>2012-01-25T14:25:05Z</time>
      </trkpt>
      <trkpt lat="44.09302" lon="5.94699">
        <ele>586.5415039</ele>
        <time>2012-01-25T14:25:18Z</time>
      </trkpt>
      <trkpt lat="44.09303" lon="5.94699">
        <ele>586.5415039</ele>
        <time>2012-01-25T14:25:19Z</time>
      </trkpt>
      <trkpt lat="44.09307" lon="5.94704">
        <ele>585.5800781</ele>
        <time>2012-01-25T14:25:34Z</time>
      </trkpt>
      <trkpt lat="44.09312" lon="5.94714">
        <ele>584.1381836</ele>
        <time>2012-01-25T14:25:45Z</time>
      </trkpt>
      <trkpt lat="44.0932" lon="5.94718">
        <ele>582.2155762</ele>
        <time>2012-01-25T14:26:06Z</time>
      </trkpt>
      <trkpt lat="44.09332" lon="5.94728">
        <ele>579.331543</ele>
        <time>2012-01-25T14:26:21Z</time>
      </trkpt>
      <trkpt lat="44.09339" lon="5.94734">
        <ele>577.8896484</ele>
        <time>2012-01-25T14:26:29Z</time>
      </trkpt>
      <trkpt lat="44.09353" lon="5.94743">
        <ele>575.967041</ele>
        <time>2012-01-25T14:26:42Z</time>
      </trkpt>
      <trkpt lat="44.09366" lon="5.94754">
        <ele>573.083252</ele>
        <time>2012-01-25T14:26:57Z</time>
      </trkpt>
      <trkpt lat="44.09376" lon="5.94765">
        <ele>570.6796875</ele>
        <time>2012-01-25T14:27:11Z</time>
      </trkpt>
      <trkpt lat="44.09388" lon="5.9478">
        <ele>568.7570801</ele>
        <time>2012-01-25T14:27:26Z</time>
      </trkpt>
      <trkpt lat="44.09399" lon="5.94801">
        <ele>567.3151855</ele>
        <time>2012-01-25T14:27:41Z</time>
      </trkpt>
      <trkpt lat="44.09404" lon="5.94817">
        <ele>566.3537598</ele>
        <time>2012-01-25T14:27:55Z</time>
      </trkpt>
      <trkpt lat="44.09403" lon="5.94817">
        <ele>565.873291</ele>
        <time>2012-01-25T14:27:56Z</time>
      </trkpt>
      <trkpt lat="44.09389" lon="5.94818">
        <ele>565.3925781</ele>
        <time>2012-01-25T14:28:06Z</time>
      </trkpt>
      <trkpt lat="44.09373" lon="5.94821">
        <ele>566.3537598</ele>
        <time>2012-01-25T14:28:20Z</time>
      </trkpt>
      <trkpt lat="44.0936" lon="5.94829">
        <ele>565.873291</ele>
        <time>2012-01-25T14:28:31Z</time>
      </trkpt>
      <trkpt lat="44.09346" lon="5.94837">
        <ele>566.3537598</ele>
        <time>2012-01-25T14:28:46Z</time>
      </trkpt>
      <trkpt lat="44.09343" lon="5.94839">
        <ele>566.8344727</ele>
        <time>2012-01-25T14:28:49Z</time>
      </trkpt>
      <trkpt lat="44.09334" lon="5.94841">
        <ele>566.8344727</ele>
        <time>2012-01-25T14:28:58Z</time>
      </trkpt>
      <trkpt lat="44.0932" lon="5.94854">
        <ele>565.873291</ele>
        <time>2012-01-25T14:29:14Z</time>
      </trkpt>
      <trkpt lat="44.09317" lon="5.94867">
        <ele>563.4699707</ele>
        <time>2012-01-25T14:29:28Z</time>
      </trkpt>
      <trkpt lat="44.09315" lon="5.94884">
        <ele>562.5085449</ele>
        <time>2012-01-25T14:29:43Z</time>
      </trkpt>
      <trkpt lat="44.09305" lon="5.9489">
        <ele>562.9892578</ele>
        <time>2012-01-25T14:29:58Z</time>
      </trkpt>
      <trkpt lat="44.09302" lon="5.94894">
        <ele>562.9892578</ele>
        <time>2012-01-25T14:30:11Z</time>
      </trkpt>
      <trkpt lat="44.09303" lon="5.94894">
        <ele>562.0280762</ele>
        <time>2012-01-25T14:30:36Z</time>
      </trkpt>
      <trkpt lat="44.09303" lon="5.94894">
        <ele>562.9892578</ele>
        <time>2012-01-25T14:30:39Z</time>
      </trkpt>
    </trkseg>
  </trk>
</gpx>